<?xml version="1.0" encoding="UTF-8" standalone="no" ?>
<gpx xmlns="http://www.topografix.com/GPX/1/1" xmlns:xsi="http://www.w3.org/2001/XMLSchema-instance" xsi:schemaLocation="http://www.topografix.com/GPX/1/1 http://www.topografix.com/GPX/1/1/gpx.xsd" version="1.1" creator="VisuGPX - https://www.visugpx.com">
  <metadata>
    <name>J1 M Cascade de Charabotte 07092020 DEB</name>
    <desc><![CDATA[File with points/tracks from Locus Map/3.48.1]]></desc>
  </metadata>
  <trk>
    <name><![CDATA[2020-09-07 10:30:19]]></name>
    <extensions>
      <line xmlns="http://www.topografix.com/GPX/gpx_style/0/2">
        <color>0000FF</color>
        <opacity>0.59</opacity>
        <width>6.0</width>
      </line>
    </extensions>
    <trkseg>
      <trkpt lat="45.968" lon="5.5758">
        <ele>729.31</ele>
        <time>2020-09-07T08:30:19.999Z</time>
      </trkpt>
      <trkpt lat="45.96801" lon="5.57577">
        <ele>729.27</ele>
        <time>2020-09-07T08:31:07.999Z</time>
      </trkpt>
      <trkpt lat="45.968" lon="5.57575">
        <ele>729.24</ele>
        <time>2020-09-07T08:31:40.999Z</time>
      </trkpt>
      <trkpt lat="45.96799" lon="5.57573">
        <ele>729.22</ele>
        <time>2020-09-07T08:33:13.999Z</time>
      </trkpt>
      <trkpt lat="45.96798" lon="5.5757">
        <ele>729.19</ele>
        <time>2020-09-07T08:34:21.999Z</time>
      </trkpt>
      <trkpt lat="45.96797" lon="5.57569">
        <ele>729.17</ele>
        <time>2020-09-07T08:34:35.999Z</time>
      </trkpt>
      <trkpt lat="45.96795" lon="5.57567">
        <ele>729.17</ele>
        <time>2020-09-07T08:35:31.441Z</time>
      </trkpt>
      <trkpt lat="45.96794" lon="5.57564">
        <ele>729.14</ele>
        <time>2020-09-07T08:35:41.000Z</time>
      </trkpt>
      <trkpt lat="45.96799" lon="5.57572">
        <ele>729.21</ele>
        <time>2020-09-07T08:35:51.000Z</time>
      </trkpt>
      <trkpt lat="45.96798" lon="5.57575">
        <ele>729.24</ele>
        <time>2020-09-07T08:36:04.000Z</time>
      </trkpt>
      <trkpt lat="45.96798" lon="5.57577">
        <ele>729.28</ele>
        <time>2020-09-07T08:36:18.000Z</time>
      </trkpt>
      <trkpt lat="45.968" lon="5.57578">
        <ele>729.29</ele>
        <time>2020-09-07T08:36:48.000Z</time>
      </trkpt>
      <trkpt lat="45.96801" lon="5.57578">
        <ele>729.28</ele>
        <time>2020-09-07T08:37:18.000Z</time>
      </trkpt>
      <trkpt lat="45.96802" lon="5.57575">
        <ele>729.24</ele>
        <time>2020-09-07T08:37:46.000Z</time>
      </trkpt>
      <trkpt lat="45.96803" lon="5.57573">
        <ele>729.22</ele>
        <time>2020-09-07T08:39:33.000Z</time>
      </trkpt>
      <trkpt lat="45.96812" lon="5.57554">
        <ele>729.17</ele>
        <time>2020-09-07T08:39:43.000Z</time>
      </trkpt>
      <trkpt lat="45.96816" lon="5.57541">
        <ele>729.27</ele>
        <time>2020-09-07T08:39:53.000Z</time>
      </trkpt>
      <trkpt lat="45.96823" lon="5.57529">
        <ele>729.55</ele>
        <time>2020-09-07T08:40:02.531Z</time>
      </trkpt>
      <trkpt lat="45.96833" lon="5.57525">
        <ele>730.01</ele>
        <time>2020-09-07T08:40:11.908Z</time>
      </trkpt>
      <trkpt lat="45.96844" lon="5.57522">
        <ele>730.56</ele>
        <time>2020-09-07T08:40:21.537Z</time>
      </trkpt>
      <trkpt lat="45.96855" lon="5.57523">
        <ele>731.04</ele>
        <time>2020-09-07T08:40:31.000Z</time>
      </trkpt>
      <trkpt lat="45.96857" lon="5.5751">
        <ele>731.59</ele>
        <time>2020-09-07T08:40:40.795Z</time>
      </trkpt>
      <trkpt lat="45.96853" lon="5.57495">
        <ele>732.3</ele>
        <time>2020-09-07T08:40:49.973Z</time>
      </trkpt>
      <trkpt lat="45.96851" lon="5.57487">
        <ele>732.82</ele>
        <time>2020-09-07T08:40:59.374Z</time>
      </trkpt>
      <trkpt lat="45.96845" lon="5.57473">
        <ele>733.76</ele>
        <time>2020-09-07T08:41:08.832Z</time>
      </trkpt>
      <trkpt lat="45.96839" lon="5.5746">
        <ele>734.6</ele>
        <time>2020-09-07T08:41:17.891Z</time>
      </trkpt>
      <trkpt lat="45.9683" lon="5.5745">
        <ele>734.95</ele>
        <time>2020-09-07T08:41:28.000Z</time>
      </trkpt>
      <trkpt lat="45.96819" lon="5.57442">
        <ele>734.77</ele>
        <time>2020-09-07T08:41:37.191Z</time>
      </trkpt>
      <trkpt lat="45.96809" lon="5.5744">
        <ele>734.09</ele>
        <time>2020-09-07T08:41:46.328Z</time>
      </trkpt>
      <trkpt lat="45.96798" lon="5.57437">
        <ele>733.31</ele>
        <time>2020-09-07T08:41:55.956Z</time>
      </trkpt>
      <trkpt lat="45.96793" lon="5.57432">
        <ele>733.21</ele>
        <time>2020-09-07T08:42:05.000Z</time>
      </trkpt>
      <trkpt lat="45.9679" lon="5.57415">
        <ele>734.21</ele>
        <time>2020-09-07T08:42:14.315Z</time>
      </trkpt>
      <trkpt lat="45.96787" lon="5.574">
        <ele>735.17</ele>
        <time>2020-09-07T08:42:23.475Z</time>
      </trkpt>
      <trkpt lat="45.96785" lon="5.57387">
        <ele>736.15</ele>
        <time>2020-09-07T08:42:32.595Z</time>
      </trkpt>
      <trkpt lat="45.96781" lon="5.57375">
        <ele>736.34</ele>
        <time>2020-09-07T08:42:41.691Z</time>
      </trkpt>
      <trkpt lat="45.96779" lon="5.57362">
        <ele>737.16</ele>
        <time>2020-09-07T08:42:50.853Z</time>
      </trkpt>
      <trkpt lat="45.96777" lon="5.5735">
        <ele>737.65</ele>
        <time>2020-09-07T08:43:00.030Z</time>
      </trkpt>
      <trkpt lat="45.96774" lon="5.57334">
        <ele>737.97</ele>
        <time>2020-09-07T08:43:09.328Z</time>
      </trkpt>
      <trkpt lat="45.96776" lon="5.5732">
        <ele>739.95</ele>
        <time>2020-09-07T08:43:18.393Z</time>
      </trkpt>
      <trkpt lat="45.96779" lon="5.57308">
        <ele>742.15</ele>
        <time>2020-09-07T08:43:27.516Z</time>
      </trkpt>
      <trkpt lat="45.96778" lon="5.57293">
        <ele>743.08</ele>
        <time>2020-09-07T08:43:36.977Z</time>
      </trkpt>
      <trkpt lat="45.96769" lon="5.57276">
        <ele>741.57</ele>
        <time>2020-09-07T08:43:46.358Z</time>
      </trkpt>
      <trkpt lat="45.96763" lon="5.57268">
        <ele>740</ele>
        <time>2020-09-07T08:43:55.956Z</time>
      </trkpt>
      <trkpt lat="45.96759" lon="5.57262">
        <ele>739.31</ele>
        <time>2020-09-07T08:44:05.000Z</time>
      </trkpt>
      <trkpt lat="45.96752" lon="5.5725">
        <ele>738.62</ele>
        <time>2020-09-07T08:44:14.033Z</time>
      </trkpt>
      <trkpt lat="45.96748" lon="5.57233">
        <ele>739.92</ele>
        <time>2020-09-07T08:44:23.316Z</time>
      </trkpt>
      <trkpt lat="45.96746" lon="5.57223">
        <ele>740.97</ele>
        <time>2020-09-07T08:44:33.000Z</time>
      </trkpt>
      <trkpt lat="45.96742" lon="5.57218">
        <ele>740.51</ele>
        <time>2020-09-07T08:44:42.254Z</time>
      </trkpt>
      <trkpt lat="45.96738" lon="5.57205">
        <ele>741.69</ele>
        <time>2020-09-07T08:44:52.000Z</time>
      </trkpt>
      <trkpt lat="45.96735" lon="5.57186">
        <ele>743.81</ele>
        <time>2020-09-07T08:45:01.369Z</time>
      </trkpt>
      <trkpt lat="45.96728" lon="5.57175">
        <ele>742.63</ele>
        <time>2020-09-07T08:45:11.000Z</time>
      </trkpt>
      <trkpt lat="45.9672" lon="5.57169">
        <ele>739.52</ele>
        <time>2020-09-07T08:45:20.352Z</time>
      </trkpt>
      <trkpt lat="45.9671" lon="5.57159">
        <ele>735.88</ele>
        <time>2020-09-07T08:45:30.000Z</time>
      </trkpt>
      <trkpt lat="45.96707" lon="5.57148">
        <ele>735.23</ele>
        <time>2020-09-07T08:45:39.018Z</time>
      </trkpt>
      <trkpt lat="45.96707" lon="5.57138">
        <ele>736.54</ele>
        <time>2020-09-07T08:45:48.603Z</time>
      </trkpt>
      <trkpt lat="45.96705" lon="5.57121">
        <ele>737.13</ele>
        <time>2020-09-07T08:45:57.613Z</time>
      </trkpt>
      <trkpt lat="45.96704" lon="5.57101">
        <ele>738.63</ele>
        <time>2020-09-07T08:46:07.000Z</time>
      </trkpt>
      <trkpt lat="45.96708" lon="5.57076">
        <ele>741.76</ele>
        <time>2020-09-07T08:46:17.000Z</time>
      </trkpt>
      <trkpt lat="45.96712" lon="5.57063">
        <ele>744.42</ele>
        <time>2020-09-07T08:46:26.374Z</time>
      </trkpt>
      <trkpt lat="45.96715" lon="5.57052">
        <ele>746.34</ele>
        <time>2020-09-07T08:46:35.892Z</time>
      </trkpt>
      <trkpt lat="45.96717" lon="5.57039">
        <ele>747.3</ele>
        <time>2020-09-07T08:46:44.950Z</time>
      </trkpt>
      <trkpt lat="45.96717" lon="5.57029">
        <ele>747.3</ele>
        <time>2020-09-07T08:46:53.989Z</time>
      </trkpt>
      <trkpt lat="45.96716" lon="5.57017">
        <ele>747.1</ele>
        <time>2020-09-07T08:47:02.999Z</time>
      </trkpt>
      <trkpt lat="45.96714" lon="5.57004">
        <ele>745.55</ele>
        <time>2020-09-07T08:47:12.855Z</time>
      </trkpt>
      <trkpt lat="45.96714" lon="5.56995">
        <ele>745.82</ele>
        <time>2020-09-07T08:47:21.999Z</time>
      </trkpt>
      <trkpt lat="45.96717" lon="5.56981">
        <ele>748.79</ele>
        <time>2020-09-07T08:47:31.999Z</time>
      </trkpt>
      <trkpt lat="45.9672" lon="5.56963">
        <ele>751.38</ele>
        <time>2020-09-07T08:47:41.276Z</time>
      </trkpt>
      <trkpt lat="45.9672" lon="5.56953">
        <ele>752.18</ele>
        <time>2020-09-07T08:47:50.999Z</time>
      </trkpt>
      <trkpt lat="45.96719" lon="5.56947">
        <ele>751.57</ele>
        <time>2020-09-07T08:48:00.453Z</time>
      </trkpt>
      <trkpt lat="45.96715" lon="5.56939">
        <ele>748.52</ele>
        <time>2020-09-07T08:48:09.999Z</time>
      </trkpt>
      <trkpt lat="45.96717" lon="5.5693">
        <ele>750.45</ele>
        <time>2020-09-07T08:48:19.310Z</time>
      </trkpt>
      <trkpt lat="45.96719" lon="5.56916">
        <ele>751.34</ele>
        <time>2020-09-07T08:48:28.999Z</time>
      </trkpt>
      <trkpt lat="45.96721" lon="5.56902">
        <ele>751.56</ele>
        <time>2020-09-07T08:48:38.450Z</time>
      </trkpt>
      <trkpt lat="45.96716" lon="5.56892">
        <ele>746.75</ele>
        <time>2020-09-07T08:48:47.999Z</time>
      </trkpt>
      <trkpt lat="45.96712" lon="5.56873">
        <ele>741.26</ele>
        <time>2020-09-07T08:48:57.273Z</time>
      </trkpt>
      <trkpt lat="45.9671" lon="5.56862">
        <ele>738.49</ele>
        <time>2020-09-07T08:49:06.999Z</time>
      </trkpt>
      <trkpt lat="45.96711" lon="5.56853">
        <ele>737.59</ele>
        <time>2020-09-07T08:49:16.155Z</time>
      </trkpt>
      <trkpt lat="45.96712" lon="5.56842">
        <ele>736.69</ele>
        <time>2020-09-07T08:49:25.591Z</time>
      </trkpt>
      <trkpt lat="45.96714" lon="5.5683">
        <ele>736.66</ele>
        <time>2020-09-07T08:49:34.630Z</time>
      </trkpt>
      <trkpt lat="45.96715" lon="5.56816">
        <ele>735.3</ele>
        <time>2020-09-07T08:49:43.869Z</time>
      </trkpt>
      <trkpt lat="45.96715" lon="5.56805">
        <ele>733.43</ele>
        <time>2020-09-07T08:49:52.999Z</time>
      </trkpt>
      <trkpt lat="45.96713" lon="5.56796">
        <ele>731.21</ele>
        <time>2020-09-07T08:50:02.487Z</time>
      </trkpt>
      <trkpt lat="45.96711" lon="5.56788">
        <ele>728.89</ele>
        <time>2020-09-07T08:50:11.869Z</time>
      </trkpt>
      <trkpt lat="45.96712" lon="5.56775">
        <ele>727.41</ele>
        <time>2020-09-07T08:50:21.218Z</time>
      </trkpt>
      <trkpt lat="45.9671" lon="5.56767">
        <ele>725.94</ele>
        <time>2020-09-07T08:50:30.568Z</time>
      </trkpt>
      <trkpt lat="45.96708" lon="5.56759">
        <ele>724.37</ele>
        <time>2020-09-07T08:50:39.999Z</time>
      </trkpt>
      <trkpt lat="45.96705" lon="5.56748">
        <ele>722.38</ele>
        <time>2020-09-07T08:50:49.357Z</time>
      </trkpt>
      <trkpt lat="45.96704" lon="5.56728">
        <ele>721.42</ele>
        <time>2020-09-07T08:50:59.055Z</time>
      </trkpt>
      <trkpt lat="45.96703" lon="5.56716">
        <ele>721.17</ele>
        <time>2020-09-07T08:51:08.436Z</time>
      </trkpt>
      <trkpt lat="45.96698" lon="5.56698">
        <ele>719.33</ele>
        <time>2020-09-07T08:51:17.999Z</time>
      </trkpt>
      <trkpt lat="45.96692" lon="5.5668">
        <ele>718</ele>
        <time>2020-09-07T08:51:27.552Z</time>
      </trkpt>
      <trkpt lat="45.96689" lon="5.5667">
        <ele>717.81</ele>
        <time>2020-09-07T08:51:36.999Z</time>
      </trkpt>
      <trkpt lat="45.96685" lon="5.56664">
        <ele>717.41</ele>
        <time>2020-09-07T08:51:46.390Z</time>
      </trkpt>
      <trkpt lat="45.96682" lon="5.56659">
        <ele>717.16</ele>
        <time>2020-09-07T08:51:55.999Z</time>
      </trkpt>
      <trkpt lat="45.96676" lon="5.56657">
        <ele>715.56</ele>
        <time>2020-09-07T08:52:05.857Z</time>
      </trkpt>
      <trkpt lat="45.96672" lon="5.56655">
        <ele>714.36</ele>
        <time>2020-09-07T08:52:15.335Z</time>
      </trkpt>
      <trkpt lat="45.96668" lon="5.56654">
        <ele>713.42</ele>
        <time>2020-09-07T08:52:24.536Z</time>
      </trkpt>
      <trkpt lat="45.96665" lon="5.5665">
        <ele>713.7</ele>
        <time>2020-09-07T08:52:33.934Z</time>
      </trkpt>
      <trkpt lat="45.96666" lon="5.56647">
        <ele>714.37</ele>
        <time>2020-09-07T08:52:45.433Z</time>
      </trkpt>
      <trkpt lat="45.96662" lon="5.56641">
        <ele>714.66</ele>
        <time>2020-09-07T08:52:54.999Z</time>
      </trkpt>
      <trkpt lat="45.96658" lon="5.56638">
        <ele>714.42</ele>
        <time>2020-09-07T08:53:04.430Z</time>
      </trkpt>
      <trkpt lat="45.96658" lon="5.56626">
        <ele>716.98</ele>
        <time>2020-09-07T08:53:13.530Z</time>
      </trkpt>
      <trkpt lat="45.96658" lon="5.56613">
        <ele>719.69</ele>
        <time>2020-09-07T08:53:22.999Z</time>
      </trkpt>
      <trkpt lat="45.96658" lon="5.56608">
        <ele>720.96</ele>
        <time>2020-09-07T08:53:32.999Z</time>
      </trkpt>
      <trkpt lat="45.96652" lon="5.56603">
        <ele>718.39</ele>
        <time>2020-09-07T08:53:42.999Z</time>
      </trkpt>
      <trkpt lat="45.96647" lon="5.56595">
        <ele>715.7</ele>
        <time>2020-09-07T08:53:52.999Z</time>
      </trkpt>
      <trkpt lat="45.96646" lon="5.5659">
        <ele>714.97</ele>
        <time>2020-09-07T08:54:02.999Z</time>
      </trkpt>
      <trkpt lat="45.96644" lon="5.56591">
        <ele>713.38</ele>
        <time>2020-09-07T08:54:19.999Z</time>
      </trkpt>
      <trkpt lat="45.96643" lon="5.56592">
        <ele>712.02</ele>
        <time>2020-09-07T08:54:30.999Z</time>
      </trkpt>
      <trkpt lat="45.96641" lon="5.56591">
        <ele>710.52</ele>
        <time>2020-09-07T08:54:41.031Z</time>
      </trkpt>
      <trkpt lat="45.96637" lon="5.56587">
        <ele>707.15</ele>
        <time>2020-09-07T08:54:50.088Z</time>
      </trkpt>
      <trkpt lat="45.96632" lon="5.56574">
        <ele>700.58</ele>
        <time>2020-09-07T08:54:59.999Z</time>
      </trkpt>
      <trkpt lat="45.96628" lon="5.5657">
        <ele>695.06</ele>
        <time>2020-09-07T08:55:09.999Z</time>
      </trkpt>
      <trkpt lat="45.96626" lon="5.56569">
        <ele>691.41</ele>
        <time>2020-09-07T08:55:19.999Z</time>
      </trkpt>
      <trkpt lat="45.96624" lon="5.56567">
        <ele>689.03</ele>
        <time>2020-09-07T08:55:32.999Z</time>
      </trkpt>
      <trkpt lat="45.96626" lon="5.56567">
        <ele>691.05</ele>
        <time>2020-09-07T08:55:58.999Z</time>
      </trkpt>
      <trkpt lat="45.96627" lon="5.56568">
        <ele>693.49</ele>
        <time>2020-09-07T08:56:09.999Z</time>
      </trkpt>
      <trkpt lat="45.96629" lon="5.56571">
        <ele>695.56</ele>
        <time>2020-09-07T08:56:23.437Z</time>
      </trkpt>
      <trkpt lat="45.96632" lon="5.56576">
        <ele>700.72</ele>
        <time>2020-09-07T08:56:32.999Z</time>
      </trkpt>
      <trkpt lat="45.96634" lon="5.56578">
        <ele>703.09</ele>
        <time>2020-09-07T08:56:42.017Z</time>
      </trkpt>
      <trkpt lat="45.96637" lon="5.56583">
        <ele>706.28</ele>
        <time>2020-09-07T08:56:51.334Z</time>
      </trkpt>
      <trkpt lat="45.96637" lon="5.56586">
        <ele>706.78</ele>
        <time>2020-09-07T08:57:17.999Z</time>
      </trkpt>
      <trkpt lat="45.96636" lon="5.56591">
        <ele>706.79</ele>
        <time>2020-09-07T08:57:27.290Z</time>
      </trkpt>
      <trkpt lat="45.96638" lon="5.56593">
        <ele>708.45</ele>
        <time>2020-09-07T08:58:11.999Z</time>
      </trkpt>
      <trkpt lat="45.9664" lon="5.56595">
        <ele>709.78</ele>
        <time>2020-09-07T08:58:28.000Z</time>
      </trkpt>
      <trkpt lat="45.96642" lon="5.56596">
        <ele>711.83</ele>
        <time>2020-09-07T08:58:38.090Z</time>
      </trkpt>
      <trkpt lat="45.96644" lon="5.56599">
        <ele>713.05</ele>
        <time>2020-09-07T08:58:47.310Z</time>
      </trkpt>
      <trkpt lat="45.9665" lon="5.56606">
        <ele>716.6</ele>
        <time>2020-09-07T08:58:57.000Z</time>
      </trkpt>
      <trkpt lat="45.96659" lon="5.56614">
        <ele>719.82</ele>
        <time>2020-09-07T08:59:06.415Z</time>
      </trkpt>
      <trkpt lat="45.96663" lon="5.56621">
        <ele>720.32</ele>
        <time>2020-09-07T08:59:15.436Z</time>
      </trkpt>
      <trkpt lat="45.96665" lon="5.5662">
        <ele>721.67</ele>
        <time>2020-09-07T08:59:24.915Z</time>
      </trkpt>
      <trkpt lat="45.96667" lon="5.56625">
        <ele>720.97</ele>
        <time>2020-09-07T08:59:34.000Z</time>
      </trkpt>
      <trkpt lat="45.96667" lon="5.56627">
        <ele>720.15</ele>
        <time>2020-09-07T09:00:00.000Z</time>
      </trkpt>
      <trkpt lat="45.96669" lon="5.56633">
        <ele>719.33</ele>
        <time>2020-09-07T09:00:09.311Z</time>
      </trkpt>
      <trkpt lat="45.96672" lon="5.56638">
        <ele>718.89</ele>
        <time>2020-09-07T09:00:18.490Z</time>
      </trkpt>
      <trkpt lat="45.96674" lon="5.56645">
        <ele>717.72</ele>
        <time>2020-09-07T09:00:28.058Z</time>
      </trkpt>
      <trkpt lat="45.96676" lon="5.56649">
        <ele>717.34</ele>
        <time>2020-09-07T09:00:38.000Z</time>
      </trkpt>
      <trkpt lat="45.96679" lon="5.56654">
        <ele>717.17</ele>
        <time>2020-09-07T09:00:47.335Z</time>
      </trkpt>
      <trkpt lat="45.96683" lon="5.5666">
        <ele>717.3</ele>
        <time>2020-09-07T09:00:57.000Z</time>
      </trkpt>
      <trkpt lat="45.96689" lon="5.56668">
        <ele>718.21</ele>
        <time>2020-09-07T09:01:07.000Z</time>
      </trkpt>
      <trkpt lat="45.96695" lon="5.5668">
        <ele>719.34</ele>
        <time>2020-09-07T09:01:16.247Z</time>
      </trkpt>
      <trkpt lat="45.967" lon="5.56689">
        <ele>720.9</ele>
        <time>2020-09-07T09:01:26.171Z</time>
      </trkpt>
      <trkpt lat="45.96704" lon="5.56703">
        <ele>721.83</ele>
        <time>2020-09-07T09:01:35.466Z</time>
      </trkpt>
      <trkpt lat="45.96705" lon="5.56721">
        <ele>721.89</ele>
        <time>2020-09-07T09:01:45.000Z</time>
      </trkpt>
      <trkpt lat="45.96707" lon="5.56739">
        <ele>722.79</ele>
        <time>2020-09-07T09:01:54.375Z</time>
      </trkpt>
      <trkpt lat="45.96711" lon="5.56754">
        <ele>725.13</ele>
        <time>2020-09-07T09:02:05.000Z</time>
      </trkpt>
      <trkpt lat="45.96712" lon="5.56772">
        <ele>727.32</ele>
        <time>2020-09-07T09:02:14.195Z</time>
      </trkpt>
      <trkpt lat="45.96712" lon="5.56796">
        <ele>730.42</ele>
        <time>2020-09-07T09:02:23.332Z</time>
      </trkpt>
      <trkpt lat="45.96716" lon="5.56816">
        <ele>735.63</ele>
        <time>2020-09-07T09:02:33.000Z</time>
      </trkpt>
      <trkpt lat="45.96718" lon="5.56828">
        <ele>738.77</ele>
        <time>2020-09-07T09:02:43.000Z</time>
      </trkpt>
      <trkpt lat="45.96716" lon="5.5684">
        <ele>739.26</ele>
        <time>2020-09-07T09:02:53.000Z</time>
      </trkpt>
      <trkpt lat="45.96714" lon="5.56851">
        <ele>739.56</ele>
        <time>2020-09-07T09:03:03.000Z</time>
      </trkpt>
      <trkpt lat="45.96713" lon="5.56861">
        <ele>740.49</ele>
        <time>2020-09-07T09:03:12.258Z</time>
      </trkpt>
      <trkpt lat="45.96714" lon="5.56871">
        <ele>742.44</ele>
        <time>2020-09-07T09:03:22.337Z</time>
      </trkpt>
      <trkpt lat="45.96714" lon="5.56876">
        <ele>742.87</ele>
        <time>2020-09-07T09:03:31.376Z</time>
      </trkpt>
      <trkpt lat="45.96715" lon="5.5688">
        <ele>744.48</ele>
        <time>2020-09-07T09:03:41.000Z</time>
      </trkpt>
      <trkpt lat="45.96718" lon="5.56888">
        <ele>747.44</ele>
        <time>2020-09-07T09:03:51.000Z</time>
      </trkpt>
      <trkpt lat="45.96719" lon="5.56894">
        <ele>748.95</ele>
        <time>2020-09-07T09:04:01.000Z</time>
      </trkpt>
      <trkpt lat="45.96719" lon="5.56898">
        <ele>750.1</ele>
        <time>2020-09-07T09:04:10.110Z</time>
      </trkpt>
      <trkpt lat="45.96722" lon="5.56902">
        <ele>752.38</ele>
        <time>2020-09-07T09:04:20.000Z</time>
      </trkpt>
      <trkpt lat="45.96724" lon="5.56908">
        <ele>754.67</ele>
        <time>2020-09-07T09:04:30.000Z</time>
      </trkpt>
      <trkpt lat="45.96723" lon="5.56917">
        <ele>754.18</ele>
        <time>2020-09-07T09:04:39.407Z</time>
      </trkpt>
      <trkpt lat="45.9672" lon="5.56926">
        <ele>752.63</ele>
        <time>2020-09-07T09:04:49.056Z</time>
      </trkpt>
      <trkpt lat="45.96718" lon="5.56933">
        <ele>750.66</ele>
        <time>2020-09-07T09:04:58.377Z</time>
      </trkpt>
      <trkpt lat="45.96718" lon="5.56943">
        <ele>751.24</ele>
        <time>2020-09-07T09:05:08.000Z</time>
      </trkpt>
      <trkpt lat="45.96718" lon="5.56951">
        <ele>750.65</ele>
        <time>2020-09-07T09:05:18.000Z</time>
      </trkpt>
      <trkpt lat="45.96716" lon="5.56958">
        <ele>749.11</ele>
        <time>2020-09-07T09:05:27.373Z</time>
      </trkpt>
      <trkpt lat="45.96715" lon="5.56964">
        <ele>748.15</ele>
        <time>2020-09-07T09:05:36.391Z</time>
      </trkpt>
      <trkpt lat="45.96715" lon="5.56971">
        <ele>747.55</ele>
        <time>2020-09-07T09:05:45.710Z</time>
      </trkpt>
      <trkpt lat="45.96714" lon="5.56984">
        <ele>746.22</ele>
        <time>2020-09-07T09:05:54.719Z</time>
      </trkpt>
      <trkpt lat="45.96714" lon="5.56997">
        <ele>745.72</ele>
        <time>2020-09-07T09:06:04.000Z</time>
      </trkpt>
      <trkpt lat="45.96715" lon="5.57011">
        <ele>746.3</ele>
        <time>2020-09-07T09:06:13.355Z</time>
      </trkpt>
      <trkpt lat="45.96715" lon="5.57024">
        <ele>746.22</ele>
        <time>2020-09-07T09:06:22.476Z</time>
      </trkpt>
      <trkpt lat="45.96716" lon="5.57043">
        <ele>746.84</ele>
        <time>2020-09-07T09:06:31.978Z</time>
      </trkpt>
      <trkpt lat="45.96715" lon="5.57056">
        <ele>746.32</ele>
        <time>2020-09-07T09:06:41.000Z</time>
      </trkpt>
      <trkpt lat="45.96713" lon="5.57072">
        <ele>744.63</ele>
        <time>2020-09-07T09:06:50.095Z</time>
      </trkpt>
      <trkpt lat="45.96711" lon="5.57089">
        <ele>742.74</ele>
        <time>2020-09-07T09:06:59.277Z</time>
      </trkpt>
      <trkpt lat="45.96707" lon="5.57104">
        <ele>739.47</ele>
        <time>2020-09-07T09:07:08.399Z</time>
      </trkpt>
      <trkpt lat="45.96705" lon="5.57119">
        <ele>737.53</ele>
        <time>2020-09-07T09:07:18.000Z</time>
      </trkpt>
      <trkpt lat="45.96708" lon="5.57134">
        <ele>737.39</ele>
        <time>2020-09-07T09:07:28.032Z</time>
      </trkpt>
      <trkpt lat="45.96713" lon="5.57145">
        <ele>738.51</ele>
        <time>2020-09-07T09:07:37.250Z</time>
      </trkpt>
      <trkpt lat="45.96714" lon="5.57159">
        <ele>737.82</ele>
        <time>2020-09-07T09:07:47.000Z</time>
      </trkpt>
      <trkpt lat="45.9672" lon="5.57173">
        <ele>738.95</ele>
        <time>2020-09-07T09:07:56.293Z</time>
      </trkpt>
      <trkpt lat="45.96728" lon="5.57184">
        <ele>741.32</ele>
        <time>2020-09-07T09:08:06.000Z</time>
      </trkpt>
      <trkpt lat="45.96737" lon="5.57192">
        <ele>743.44</ele>
        <time>2020-09-07T09:08:15.248Z</time>
      </trkpt>
      <trkpt lat="45.9674" lon="5.57205">
        <ele>742.2</ele>
        <time>2020-09-07T09:08:24.337Z</time>
      </trkpt>
      <trkpt lat="45.96742" lon="5.57219">
        <ele>740.48</ele>
        <time>2020-09-07T09:08:33.475Z</time>
      </trkpt>
      <trkpt lat="45.96745" lon="5.57231">
        <ele>739.26</ele>
        <time>2020-09-07T09:08:42.593Z</time>
      </trkpt>
      <trkpt lat="45.96751" lon="5.57235">
        <ele>740.34</ele>
        <time>2020-09-07T09:08:52.000Z</time>
      </trkpt>
      <trkpt lat="45.96755" lon="5.57242">
        <ele>740.73</ele>
        <time>2020-09-07T09:09:02.000Z</time>
      </trkpt>
      <trkpt lat="45.96755" lon="5.57247">
        <ele>739.99</ele>
        <time>2020-09-07T09:09:12.000Z</time>
      </trkpt>
      <trkpt lat="45.96759" lon="5.57248">
        <ele>740.93</ele>
        <time>2020-09-07T09:09:21.470Z</time>
      </trkpt>
      <trkpt lat="45.96762" lon="5.57257">
        <ele>741.2</ele>
        <time>2020-09-07T09:09:31.000Z</time>
      </trkpt>
      <trkpt lat="45.96765" lon="5.57269">
        <ele>740.82</ele>
        <time>2020-09-07T09:09:40.349Z</time>
      </trkpt>
      <trkpt lat="45.96771" lon="5.5728">
        <ele>741.62</ele>
        <time>2020-09-07T09:09:49.917Z</time>
      </trkpt>
      <trkpt lat="45.96771" lon="5.57298">
        <ele>740.09</ele>
        <time>2020-09-07T09:09:59.419Z</time>
      </trkpt>
      <trkpt lat="45.96773" lon="5.57315">
        <ele>739.17</ele>
        <time>2020-09-07T09:10:08.735Z</time>
      </trkpt>
      <trkpt lat="45.96776" lon="5.57331">
        <ele>739</ele>
        <time>2020-09-07T09:10:18.315Z</time>
      </trkpt>
      <trkpt lat="45.96778" lon="5.57343">
        <ele>738.45</ele>
        <time>2020-09-07T09:10:27.553Z</time>
      </trkpt>
      <trkpt lat="45.96779" lon="5.57353">
        <ele>737.8</ele>
        <time>2020-09-07T09:10:36.893Z</time>
      </trkpt>
      <trkpt lat="45.96783" lon="5.5736">
        <ele>738.54</ele>
        <time>2020-09-07T09:10:45.932Z</time>
      </trkpt>
      <trkpt lat="45.96784" lon="5.57375">
        <ele>737.25</ele>
        <time>2020-09-07T09:10:55.190Z</time>
      </trkpt>
      <trkpt lat="45.96786" lon="5.57393">
        <ele>735.73</ele>
        <time>2020-09-07T09:11:04.446Z</time>
      </trkpt>
      <trkpt lat="45.96792" lon="5.57402">
        <ele>735.88</ele>
        <time>2020-09-07T09:11:13.817Z</time>
      </trkpt>
      <trkpt lat="45.96795" lon="5.57416">
        <ele>734.75</ele>
        <time>2020-09-07T09:11:22.999Z</time>
      </trkpt>
      <trkpt lat="45.96794" lon="5.5743">
        <ele>733.47</ele>
        <time>2020-09-07T09:11:32.176Z</time>
      </trkpt>
      <trkpt lat="45.96803" lon="5.57439">
        <ele>733.63</ele>
        <time>2020-09-07T09:11:41.999Z</time>
      </trkpt>
      <trkpt lat="45.96815" lon="5.57445">
        <ele>734.17</ele>
        <time>2020-09-07T09:11:51.999Z</time>
      </trkpt>
      <trkpt lat="45.96825" lon="5.57449">
        <ele>734.54</ele>
        <time>2020-09-07T09:12:01.312Z</time>
      </trkpt>
      <trkpt lat="45.96834" lon="5.57454">
        <ele>734.84</ele>
        <time>2020-09-07T09:12:10.450Z</time>
      </trkpt>
      <trkpt lat="45.96842" lon="5.57461">
        <ele>734.69</ele>
        <time>2020-09-07T09:12:19.709Z</time>
      </trkpt>
      <trkpt lat="45.96849" lon="5.5746">
        <ele>735.38</ele>
        <time>2020-09-07T09:12:29.377Z</time>
      </trkpt>
      <trkpt lat="45.96855" lon="5.57457">
        <ele>736.17</ele>
        <time>2020-09-07T09:12:38.999Z</time>
      </trkpt>
      <trkpt lat="45.96863" lon="5.57449">
        <ele>738</ele>
        <time>2020-09-07T09:12:48.156Z</time>
      </trkpt>
      <trkpt lat="45.96872" lon="5.5744">
        <ele>740.43</ele>
        <time>2020-09-07T09:12:57.415Z</time>
      </trkpt>
      <trkpt lat="45.96882" lon="5.57434">
        <ele>742.77</ele>
        <time>2020-09-07T09:13:06.999Z</time>
      </trkpt>
      <trkpt lat="45.96892" lon="5.57434">
        <ele>744.33</ele>
        <time>2020-09-07T09:13:17.131Z</time>
      </trkpt>
      <trkpt lat="45.96901" lon="5.57436">
        <ele>745.27</ele>
        <time>2020-09-07T09:13:26.999Z</time>
      </trkpt>
      <trkpt lat="45.9691" lon="5.5744">
        <ele>746.05</ele>
        <time>2020-09-07T09:13:36.999Z</time>
      </trkpt>
      <trkpt lat="45.96916" lon="5.57429">
        <ele>749.74</ele>
        <time>2020-09-07T09:13:46.278Z</time>
      </trkpt>
      <trkpt lat="45.96913" lon="5.57414">
        <ele>753.05</ele>
        <time>2020-09-07T09:13:56.077Z</time>
      </trkpt>
      <trkpt lat="45.96907" lon="5.57405">
        <ele>754.63</ele>
        <time>2020-09-07T09:14:05.258Z</time>
      </trkpt>
      <trkpt lat="45.96902" lon="5.57401">
        <ele>755.17</ele>
        <time>2020-09-07T09:14:14.654Z</time>
      </trkpt>
      <trkpt lat="45.96896" lon="5.57395">
        <ele>756.18</ele>
        <time>2020-09-07T09:14:23.999Z</time>
      </trkpt>
      <trkpt lat="45.9689" lon="5.57391">
        <ele>756.4</ele>
        <time>2020-09-07T09:14:33.491Z</time>
      </trkpt>
      <trkpt lat="45.96885" lon="5.57387">
        <ele>757.09</ele>
        <time>2020-09-07T09:14:42.999Z</time>
      </trkpt>
      <trkpt lat="45.96875" lon="5.57381">
        <ele>757.55</ele>
        <time>2020-09-07T09:14:52.999Z</time>
      </trkpt>
      <trkpt lat="45.96862" lon="5.57375">
        <ele>756.75</ele>
        <time>2020-09-07T09:15:02.999Z</time>
      </trkpt>
      <trkpt lat="45.96851" lon="5.57369">
        <ele>755.81</ele>
        <time>2020-09-07T09:15:12.518Z</time>
      </trkpt>
      <trkpt lat="45.96843" lon="5.57362">
        <ele>756.12</ele>
        <time>2020-09-07T09:15:21.999Z</time>
      </trkpt>
      <trkpt lat="45.96839" lon="5.57351">
        <ele>757.81</ele>
        <time>2020-09-07T09:15:31.054Z</time>
      </trkpt>
      <trkpt lat="45.96836" lon="5.5734">
        <ele>759.7</ele>
        <time>2020-09-07T09:15:40.999Z</time>
      </trkpt>
      <trkpt lat="45.96833" lon="5.57328">
        <ele>760.72</ele>
        <time>2020-09-07T09:15:50.111Z</time>
      </trkpt>
      <trkpt lat="45.96828" lon="5.57314">
        <ele>761.37</ele>
        <time>2020-09-07T09:15:59.311Z</time>
      </trkpt>
      <trkpt lat="45.96824" lon="5.57305">
        <ele>761.02</ele>
        <time>2020-09-07T09:16:08.999Z</time>
      </trkpt>
      <trkpt lat="45.96827" lon="5.57289">
        <ele>763.89</ele>
        <time>2020-09-07T09:16:18.029Z</time>
      </trkpt>
      <trkpt lat="45.96829" lon="5.57275">
        <ele>765.86</ele>
        <time>2020-09-07T09:16:27.419Z</time>
      </trkpt>
      <trkpt lat="45.96826" lon="5.57262">
        <ele>765.85</ele>
        <time>2020-09-07T09:16:37.238Z</time>
      </trkpt>
      <trkpt lat="45.96823" lon="5.57256">
        <ele>765.32</ele>
        <time>2020-09-07T09:16:46.296Z</time>
      </trkpt>
      <trkpt lat="45.96821" lon="5.57248">
        <ele>765.06</ele>
        <time>2020-09-07T09:16:55.653Z</time>
      </trkpt>
      <trkpt lat="45.96818" lon="5.5723">
        <ele>764.72</ele>
        <time>2020-09-07T09:17:05.033Z</time>
      </trkpt>
      <trkpt lat="45.96812" lon="5.57207">
        <ele>763.65</ele>
        <time>2020-09-07T09:17:14.254Z</time>
      </trkpt>
      <trkpt lat="45.96807" lon="5.57191">
        <ele>762.79</ele>
        <time>2020-09-07T09:17:23.450Z</time>
      </trkpt>
      <trkpt lat="45.96802" lon="5.57175">
        <ele>762.61</ele>
        <time>2020-09-07T09:17:32.511Z</time>
      </trkpt>
      <trkpt lat="45.96796" lon="5.57164">
        <ele>762.08</ele>
        <time>2020-09-07T09:17:41.999Z</time>
      </trkpt>
      <trkpt lat="45.96788" lon="5.57148">
        <ele>761.74</ele>
        <time>2020-09-07T09:17:51.151Z</time>
      </trkpt>
      <trkpt lat="45.96782" lon="5.57131">
        <ele>761.79</ele>
        <time>2020-09-07T09:18:00.999Z</time>
      </trkpt>
      <trkpt lat="45.9678" lon="5.57117">
        <ele>762.27</ele>
        <time>2020-09-07T09:18:10.031Z</time>
      </trkpt>
      <trkpt lat="45.96779" lon="5.57108">
        <ele>762.73</ele>
        <time>2020-09-07T09:18:19.250Z</time>
      </trkpt>
      <trkpt lat="45.9678" lon="5.57103">
        <ele>763.12</ele>
        <time>2020-09-07T09:18:28.468Z</time>
      </trkpt>
      <trkpt lat="45.96783" lon="5.57095">
        <ele>763.9</ele>
        <time>2020-09-07T09:18:37.999Z</time>
      </trkpt>
      <trkpt lat="45.96785" lon="5.57084">
        <ele>764.98</ele>
        <time>2020-09-07T09:18:47.999Z</time>
      </trkpt>
      <trkpt lat="45.96788" lon="5.57079">
        <ele>765.75</ele>
        <time>2020-09-07T09:18:57.396Z</time>
      </trkpt>
      <trkpt lat="45.96792" lon="5.57079">
        <ele>765.94</ele>
        <time>2020-09-07T09:19:06.999Z</time>
      </trkpt>
      <trkpt lat="45.96795" lon="5.57076">
        <ele>766.49</ele>
        <time>2020-09-07T09:19:16.213Z</time>
      </trkpt>
      <trkpt lat="45.96807" lon="5.57067">
        <ele>768.38</ele>
        <time>2020-09-07T09:19:25.273Z</time>
      </trkpt>
      <trkpt lat="45.96812" lon="5.5706">
        <ele>770</ele>
        <time>2020-09-07T09:19:34.331Z</time>
      </trkpt>
      <trkpt lat="45.96815" lon="5.57051">
        <ele>772.11</ele>
        <time>2020-09-07T09:19:43.999Z</time>
      </trkpt>
      <trkpt lat="45.96821" lon="5.57039">
        <ele>775.24</ele>
        <time>2020-09-07T09:19:53.533Z</time>
      </trkpt>
      <trkpt lat="45.9682" lon="5.57033">
        <ele>776.49</ele>
        <time>2020-09-07T09:20:03.050Z</time>
      </trkpt>
      <trkpt lat="45.96818" lon="5.57026">
        <ele>777.66</ele>
        <time>2020-09-07T09:20:12.999Z</time>
      </trkpt>
      <trkpt lat="45.96814" lon="5.57014">
        <ele>779.18</ele>
        <time>2020-09-07T09:20:22.051Z</time>
      </trkpt>
      <trkpt lat="45.96812" lon="5.57008">
        <ele>779.91</ele>
        <time>2020-09-07T09:20:31.999Z</time>
      </trkpt>
      <trkpt lat="45.96809" lon="5.57002">
        <ele>780.26</ele>
        <time>2020-09-07T09:20:41.999Z</time>
      </trkpt>
      <trkpt lat="45.96807" lon="5.56994">
        <ele>780.63</ele>
        <time>2020-09-07T09:20:51.097Z</time>
      </trkpt>
      <trkpt lat="45.96808" lon="5.56988">
        <ele>781.11</ele>
        <time>2020-09-07T09:21:00.475Z</time>
      </trkpt>
      <trkpt lat="45.96806" lon="5.56968">
        <ele>781.74</ele>
        <time>2020-09-07T09:21:09.994Z</time>
      </trkpt>
      <trkpt lat="45.96803" lon="5.56943">
        <ele>781.7</ele>
        <time>2020-09-07T09:21:19.000Z</time>
      </trkpt>
      <trkpt lat="45.96803" lon="5.5692">
        <ele>781.19</ele>
        <time>2020-09-07T09:21:28.152Z</time>
      </trkpt>
      <trkpt lat="45.96809" lon="5.56908">
        <ele>780.96</ele>
        <time>2020-09-07T09:21:38.000Z</time>
      </trkpt>
      <trkpt lat="45.96815" lon="5.5691">
        <ele>781.63</ele>
        <time>2020-09-07T09:21:47.313Z</time>
      </trkpt>
      <trkpt lat="45.96823" lon="5.5692">
        <ele>782.83</ele>
        <time>2020-09-07T09:21:56.377Z</time>
      </trkpt>
      <trkpt lat="45.96836" lon="5.56933">
        <ele>784.93</ele>
        <time>2020-09-07T09:22:07.000Z</time>
      </trkpt>
      <trkpt lat="45.96845" lon="5.5694">
        <ele>786.42</ele>
        <time>2020-09-07T09:22:16.957Z</time>
      </trkpt>
      <trkpt lat="45.96852" lon="5.56943">
        <ele>787.45</ele>
        <time>2020-09-07T09:22:26.175Z</time>
      </trkpt>
      <trkpt lat="45.96856" lon="5.56945">
        <ele>788.07</ele>
        <time>2020-09-07T09:22:35.794Z</time>
      </trkpt>
      <trkpt lat="45.96862" lon="5.56954">
        <ele>789.05</ele>
        <time>2020-09-07T09:22:44.894Z</time>
      </trkpt>
      <trkpt lat="45.96874" lon="5.56959">
        <ele>790.6</ele>
        <time>2020-09-07T09:22:54.154Z</time>
      </trkpt>
      <trkpt lat="45.96882" lon="5.56958">
        <ele>791.54</ele>
        <time>2020-09-07T09:23:03.294Z</time>
      </trkpt>
      <trkpt lat="45.96886" lon="5.56954">
        <ele>791.92</ele>
        <time>2020-09-07T09:23:12.295Z</time>
      </trkpt>
      <trkpt lat="45.96896" lon="5.56952">
        <ele>792.95</ele>
        <time>2020-09-07T09:23:22.000Z</time>
      </trkpt>
      <trkpt lat="45.96911" lon="5.56952">
        <ele>794.57</ele>
        <time>2020-09-07T09:23:32.092Z</time>
      </trkpt>
      <trkpt lat="45.96923" lon="5.56953">
        <ele>795.65</ele>
        <time>2020-09-07T09:23:42.000Z</time>
      </trkpt>
      <trkpt lat="45.96932" lon="5.56955">
        <ele>796.31</ele>
        <time>2020-09-07T09:23:51.551Z</time>
      </trkpt>
      <trkpt lat="45.9694" lon="5.56956">
        <ele>796.89</ele>
        <time>2020-09-07T09:24:01.000Z</time>
      </trkpt>
      <trkpt lat="45.96947" lon="5.56957">
        <ele>797.36</ele>
        <time>2020-09-07T09:24:10.429Z</time>
      </trkpt>
      <trkpt lat="45.96953" lon="5.56954">
        <ele>797.62</ele>
        <time>2020-09-07T09:24:20.058Z</time>
      </trkpt>
      <trkpt lat="45.96963" lon="5.56948">
        <ele>798.11</ele>
        <time>2020-09-07T09:24:29.175Z</time>
      </trkpt>
      <trkpt lat="45.96971" lon="5.56945">
        <ele>798.52</ele>
        <time>2020-09-07T09:24:38.557Z</time>
      </trkpt>
      <trkpt lat="45.96982" lon="5.56946">
        <ele>799.19</ele>
        <time>2020-09-07T09:24:47.794Z</time>
      </trkpt>
      <trkpt lat="45.96994" lon="5.56949">
        <ele>799.99</ele>
        <time>2020-09-07T09:24:57.172Z</time>
      </trkpt>
      <trkpt lat="45.97001" lon="5.56949">
        <ele>800.55</ele>
        <time>2020-09-07T09:25:07.000Z</time>
      </trkpt>
      <trkpt lat="45.97005" lon="5.5695">
        <ele>800.86</ele>
        <time>2020-09-07T09:25:16.074Z</time>
      </trkpt>
      <trkpt lat="45.97009" lon="5.56954">
        <ele>801.33</ele>
        <time>2020-09-07T09:25:26.229Z</time>
      </trkpt>
      <trkpt lat="45.97012" lon="5.56957">
        <ele>801.6</ele>
        <time>2020-09-07T09:25:35.858Z</time>
      </trkpt>
      <trkpt lat="45.97012" lon="5.5696">
        <ele>801.71</ele>
        <time>2020-09-07T09:25:45.000Z</time>
      </trkpt>
      <trkpt lat="45.97018" lon="5.56962">
        <ele>802.3</ele>
        <time>2020-09-07T09:25:54.074Z</time>
      </trkpt>
      <trkpt lat="45.9703" lon="5.56974">
        <ele>803.75</ele>
        <time>2020-09-07T09:26:03.353Z</time>
      </trkpt>
      <trkpt lat="45.97049" lon="5.56985">
        <ele>805.81</ele>
        <time>2020-09-07T09:26:12.516Z</time>
      </trkpt>
      <trkpt lat="45.97064" lon="5.56994">
        <ele>807.42</ele>
        <time>2020-09-07T09:26:21.832Z</time>
      </trkpt>
      <trkpt lat="45.97078" lon="5.57005">
        <ele>808.73</ele>
        <time>2020-09-07T09:26:31.290Z</time>
      </trkpt>
      <trkpt lat="45.9709" lon="5.57011">
        <ele>809.52</ele>
        <time>2020-09-07T09:26:40.389Z</time>
      </trkpt>
      <trkpt lat="45.97101" lon="5.57015">
        <ele>810.12</ele>
        <time>2020-09-07T09:26:49.487Z</time>
      </trkpt>
      <trkpt lat="45.97112" lon="5.57014">
        <ele>810.5</ele>
        <time>2020-09-07T09:26:58.929Z</time>
      </trkpt>
      <trkpt lat="45.97122" lon="5.57015">
        <ele>810.77</ele>
        <time>2020-09-07T09:27:08.000Z</time>
      </trkpt>
      <trkpt lat="45.97134" lon="5.57018">
        <ele>810.94</ele>
        <time>2020-09-07T09:27:17.396Z</time>
      </trkpt>
      <trkpt lat="45.97144" lon="5.5702">
        <ele>810.94</ele>
        <time>2020-09-07T09:27:27.000Z</time>
      </trkpt>
      <trkpt lat="45.97155" lon="5.57021">
        <ele>810.84</ele>
        <time>2020-09-07T09:27:36.296Z</time>
      </trkpt>
      <trkpt lat="45.97165" lon="5.57019">
        <ele>810.69</ele>
        <time>2020-09-07T09:27:46.000Z</time>
      </trkpt>
      <trkpt lat="45.97176" lon="5.57016">
        <ele>810.37</ele>
        <time>2020-09-07T09:27:55.052Z</time>
      </trkpt>
      <trkpt lat="45.97183" lon="5.57009">
        <ele>810.09</ele>
        <time>2020-09-07T09:28:04.510Z</time>
      </trkpt>
      <trkpt lat="45.97195" lon="5.5701">
        <ele>809.18</ele>
        <time>2020-09-07T09:28:14.130Z</time>
      </trkpt>
      <trkpt lat="45.97204" lon="5.57005">
        <ele>808.51</ele>
        <time>2020-09-07T09:28:24.000Z</time>
      </trkpt>
      <trkpt lat="45.97209" lon="5.57">
        <ele>808.2</ele>
        <time>2020-09-07T09:28:33.349Z</time>
      </trkpt>
      <trkpt lat="45.97212" lon="5.56991">
        <ele>808.15</ele>
        <time>2020-09-07T09:28:42.395Z</time>
      </trkpt>
      <trkpt lat="45.97216" lon="5.56971">
        <ele>808.31</ele>
        <time>2020-09-07T09:28:51.397Z</time>
      </trkpt>
      <trkpt lat="45.97221" lon="5.56952">
        <ele>808.35</ele>
        <time>2020-09-07T09:29:00.414Z</time>
      </trkpt>
      <trkpt lat="45.97224" lon="5.56938">
        <ele>808.43</ele>
        <time>2020-09-07T09:29:09.753Z</time>
      </trkpt>
      <trkpt lat="45.97226" lon="5.56926">
        <ele>808.6</ele>
        <time>2020-09-07T09:29:19.000Z</time>
      </trkpt>
      <trkpt lat="45.9723" lon="5.56911">
        <ele>808.69</ele>
        <time>2020-09-07T09:29:28.410Z</time>
      </trkpt>
      <trkpt lat="45.97231" lon="5.56895">
        <ele>809.04</ele>
        <time>2020-09-07T09:29:38.000Z</time>
      </trkpt>
      <trkpt lat="45.97226" lon="5.56884">
        <ele>809.49</ele>
        <time>2020-09-07T09:29:48.000Z</time>
      </trkpt>
      <trkpt lat="45.97223" lon="5.56869">
        <ele>809.95</ele>
        <time>2020-09-07T09:29:57.418Z</time>
      </trkpt>
      <trkpt lat="45.97218" lon="5.56854">
        <ele>810.44</ele>
        <time>2020-09-07T09:30:07.000Z</time>
      </trkpt>
      <trkpt lat="45.97211" lon="5.56838">
        <ele>811.01</ele>
        <time>2020-09-07T09:30:16.013Z</time>
      </trkpt>
      <trkpt lat="45.97203" lon="5.56828">
        <ele>811.49</ele>
        <time>2020-09-07T09:30:25.294Z</time>
      </trkpt>
      <trkpt lat="45.97192" lon="5.5682">
        <ele>811.95</ele>
        <time>2020-09-07T09:30:34.533Z</time>
      </trkpt>
      <trkpt lat="45.97187" lon="5.56805">
        <ele>812.42</ele>
        <time>2020-09-07T09:30:44.000Z</time>
      </trkpt>
      <trkpt lat="45.97189" lon="5.56789">
        <ele>812.83</ele>
        <time>2020-09-07T09:30:53.489Z</time>
      </trkpt>
      <trkpt lat="45.97192" lon="5.56774">
        <ele>813.2</ele>
        <time>2020-09-07T09:31:03.069Z</time>
      </trkpt>
      <trkpt lat="45.9719" lon="5.56761">
        <ele>813.54</ele>
        <time>2020-09-07T09:31:12.337Z</time>
      </trkpt>
      <trkpt lat="45.97189" lon="5.56746">
        <ele>813.85</ele>
        <time>2020-09-07T09:31:22.000Z</time>
      </trkpt>
      <trkpt lat="45.97186" lon="5.56731">
        <ele>814.13</ele>
        <time>2020-09-07T09:31:31.495Z</time>
      </trkpt>
      <trkpt lat="45.97184" lon="5.56716">
        <ele>814.35</ele>
        <time>2020-09-07T09:31:41.000Z</time>
      </trkpt>
      <trkpt lat="45.97187" lon="5.56703">
        <ele>814.45</ele>
        <time>2020-09-07T09:31:51.000Z</time>
      </trkpt>
      <trkpt lat="45.97189" lon="5.56687">
        <ele>814.53</ele>
        <time>2020-09-07T09:32:01.000Z</time>
      </trkpt>
      <trkpt lat="45.9719" lon="5.56669">
        <ele>814.55</ele>
        <time>2020-09-07T09:32:10.272Z</time>
      </trkpt>
      <trkpt lat="45.97187" lon="5.56654">
        <ele>814.52</ele>
        <time>2020-09-07T09:32:19.431Z</time>
      </trkpt>
      <trkpt lat="45.97181" lon="5.5664">
        <ele>814.33</ele>
        <time>2020-09-07T09:32:29.010Z</time>
      </trkpt>
      <trkpt lat="45.97181" lon="5.56625">
        <ele>814.01</ele>
        <time>2020-09-07T09:32:38.208Z</time>
      </trkpt>
      <trkpt lat="45.97184" lon="5.56611">
        <ele>813.83</ele>
        <time>2020-09-07T09:32:47.999Z</time>
      </trkpt>
      <trkpt lat="45.97187" lon="5.56593">
        <ele>813.62</ele>
        <time>2020-09-07T09:32:57.309Z</time>
      </trkpt>
      <trkpt lat="45.97187" lon="5.56576">
        <ele>813.29</ele>
        <time>2020-09-07T09:33:06.330Z</time>
      </trkpt>
      <trkpt lat="45.97187" lon="5.56561">
        <ele>812.81</ele>
        <time>2020-09-07T09:33:15.796Z</time>
      </trkpt>
      <trkpt lat="45.97186" lon="5.56546">
        <ele>812.23</ele>
        <time>2020-09-07T09:33:24.915Z</time>
      </trkpt>
      <trkpt lat="45.97185" lon="5.5653">
        <ele>811.5</ele>
        <time>2020-09-07T09:33:34.038Z</time>
      </trkpt>
      <trkpt lat="45.97182" lon="5.56514">
        <ele>810.74</ele>
        <time>2020-09-07T09:33:43.535Z</time>
      </trkpt>
      <trkpt lat="45.9718" lon="5.56501">
        <ele>810.26</ele>
        <time>2020-09-07T09:33:53.076Z</time>
      </trkpt>
      <trkpt lat="45.97179" lon="5.56491">
        <ele>809.99</ele>
        <time>2020-09-07T09:34:02.999Z</time>
      </trkpt>
      <trkpt lat="45.97177" lon="5.56486">
        <ele>809.69</ele>
        <time>2020-09-07T09:34:12.999Z</time>
      </trkpt>
      <trkpt lat="45.97176" lon="5.56478">
        <ele>809.55</ele>
        <time>2020-09-07T09:34:22.294Z</time>
      </trkpt>
      <trkpt lat="45.97174" lon="5.56468">
        <ele>809.41</ele>
        <time>2020-09-07T09:34:31.355Z</time>
      </trkpt>
      <trkpt lat="45.97172" lon="5.56457">
        <ele>809.28</ele>
        <time>2020-09-07T09:34:40.453Z</time>
      </trkpt>
      <trkpt lat="45.9717" lon="5.56448">
        <ele>809.17</ele>
        <time>2020-09-07T09:34:49.999Z</time>
      </trkpt>
      <trkpt lat="45.97163" lon="5.56426">
        <ele>808.7</ele>
        <time>2020-09-07T09:34:59.999Z</time>
      </trkpt>
      <trkpt lat="45.9716" lon="5.56389">
        <ele>808.74</ele>
        <time>2020-09-07T09:35:09.030Z</time>
      </trkpt>
      <trkpt lat="45.97155" lon="5.56366">
        <ele>808.78</ele>
        <time>2020-09-07T09:35:18.529Z</time>
      </trkpt>
      <trkpt lat="45.97149" lon="5.56348">
        <ele>808.84</ele>
        <time>2020-09-07T09:35:28.050Z</time>
      </trkpt>
      <trkpt lat="45.97143" lon="5.56332">
        <ele>808.72</ele>
        <time>2020-09-07T09:35:37.999Z</time>
      </trkpt>
      <trkpt lat="45.9714" lon="5.56316">
        <ele>808.04</ele>
        <time>2020-09-07T09:35:47.318Z</time>
      </trkpt>
      <trkpt lat="45.97137" lon="5.56303">
        <ele>807.11</ele>
        <time>2020-09-07T09:35:56.475Z</time>
      </trkpt>
      <trkpt lat="45.97128" lon="5.56298">
        <ele>806.51</ele>
        <time>2020-09-07T09:36:05.557Z</time>
      </trkpt>
      <trkpt lat="45.97123" lon="5.56284">
        <ele>804.9</ele>
        <time>2020-09-07T09:36:14.673Z</time>
      </trkpt>
      <trkpt lat="45.97116" lon="5.56274">
        <ele>803.51</ele>
        <time>2020-09-07T09:36:23.999Z</time>
      </trkpt>
      <trkpt lat="45.97107" lon="5.56262">
        <ele>801.89</ele>
        <time>2020-09-07T09:36:33.373Z</time>
      </trkpt>
      <trkpt lat="45.97099" lon="5.56254">
        <ele>800.91</ele>
        <time>2020-09-07T09:36:42.491Z</time>
      </trkpt>
      <trkpt lat="45.97089" lon="5.56249">
        <ele>800.21</ele>
        <time>2020-09-07T09:36:51.510Z</time>
      </trkpt>
      <trkpt lat="45.9708" lon="5.5624">
        <ele>799.69</ele>
        <time>2020-09-07T09:37:01.289Z</time>
      </trkpt>
      <trkpt lat="45.97068" lon="5.56237">
        <ele>799.44</ele>
        <time>2020-09-07T09:37:10.318Z</time>
      </trkpt>
      <trkpt lat="45.97056" lon="5.56245">
        <ele>799.42</ele>
        <time>2020-09-07T09:37:19.420Z</time>
      </trkpt>
      <trkpt lat="45.97046" lon="5.56247">
        <ele>799.48</ele>
        <time>2020-09-07T09:37:28.936Z</time>
      </trkpt>
      <trkpt lat="45.97035" lon="5.56246">
        <ele>799.59</ele>
        <time>2020-09-07T09:37:37.976Z</time>
      </trkpt>
      <trkpt lat="45.97022" lon="5.56248">
        <ele>799.76</ele>
        <time>2020-09-07T09:37:47.536Z</time>
      </trkpt>
      <trkpt lat="45.97012" lon="5.56243">
        <ele>799.9</ele>
        <time>2020-09-07T09:37:56.996Z</time>
      </trkpt>
      <trkpt lat="45.97006" lon="5.56233">
        <ele>799.99</ele>
        <time>2020-09-07T09:38:06.999Z</time>
      </trkpt>
      <trkpt lat="45.96997" lon="5.56222">
        <ele>800.03</ele>
        <time>2020-09-07T09:38:16.999Z</time>
      </trkpt>
      <trkpt lat="45.96995" lon="5.56207">
        <ele>800.01</ele>
        <time>2020-09-07T09:38:26.335Z</time>
      </trkpt>
      <trkpt lat="45.96996" lon="5.56187">
        <ele>799.98</ele>
        <time>2020-09-07T09:38:35.492Z</time>
      </trkpt>
      <trkpt lat="45.97" lon="5.56171">
        <ele>800.03</ele>
        <time>2020-09-07T09:38:44.509Z</time>
      </trkpt>
      <trkpt lat="45.97001" lon="5.56153">
        <ele>799.95</ele>
        <time>2020-09-07T09:38:53.999Z</time>
      </trkpt>
      <trkpt lat="45.96997" lon="5.56141">
        <ele>799.63</ele>
        <time>2020-09-07T09:39:03.432Z</time>
      </trkpt>
      <trkpt lat="45.96993" lon="5.56134">
        <ele>799.34</ele>
        <time>2020-09-07T09:39:12.999Z</time>
      </trkpt>
      <trkpt lat="45.96992" lon="5.56128">
        <ele>799.19</ele>
        <time>2020-09-07T09:39:22.076Z</time>
      </trkpt>
      <trkpt lat="45.96988" lon="5.56123">
        <ele>798.92</ele>
        <time>2020-09-07T09:39:31.154Z</time>
      </trkpt>
      <trkpt lat="45.96988" lon="5.56099">
        <ele>798.51</ele>
        <time>2020-09-07T09:39:40.292Z</time>
      </trkpt>
      <trkpt lat="45.96988" lon="5.56073">
        <ele>798.17</ele>
        <time>2020-09-07T09:39:49.852Z</time>
      </trkpt>
      <trkpt lat="45.96986" lon="5.56057">
        <ele>797.98</ele>
        <time>2020-09-07T09:39:58.999Z</time>
      </trkpt>
      <trkpt lat="45.96985" lon="5.56038">
        <ele>797.9</ele>
        <time>2020-09-07T09:40:08.490Z</time>
      </trkpt>
      <trkpt lat="45.9698" lon="5.5602">
        <ele>797.66</ele>
        <time>2020-09-07T09:40:17.949Z</time>
      </trkpt>
      <trkpt lat="45.96979" lon="5.56013">
        <ele>797.6</ele>
        <time>2020-09-07T09:40:26.999Z</time>
      </trkpt>
      <trkpt lat="45.9698" lon="5.56006">
        <ele>797.56</ele>
        <time>2020-09-07T09:40:36.476Z</time>
      </trkpt>
      <trkpt lat="45.96983" lon="5.55995">
        <ele>797.47</ele>
        <time>2020-09-07T09:40:45.999Z</time>
      </trkpt>
      <trkpt lat="45.96988" lon="5.5598">
        <ele>797.08</ele>
        <time>2020-09-07T09:40:55.437Z</time>
      </trkpt>
      <trkpt lat="45.96993" lon="5.55966">
        <ele>796.52</ele>
        <time>2020-09-07T09:41:04.836Z</time>
      </trkpt>
      <trkpt lat="45.96998" lon="5.55952">
        <ele>795.9</ele>
        <time>2020-09-07T09:41:14.214Z</time>
      </trkpt>
      <trkpt lat="45.97004" lon="5.55938">
        <ele>795.29</ele>
        <time>2020-09-07T09:41:23.451Z</time>
      </trkpt>
      <trkpt lat="45.97011" lon="5.55926">
        <ele>794.94</ele>
        <time>2020-09-07T09:41:32.999Z</time>
      </trkpt>
      <trkpt lat="45.9702" lon="5.55915">
        <ele>794.79</ele>
        <time>2020-09-07T09:41:42.469Z</time>
      </trkpt>
      <trkpt lat="45.9703" lon="5.5591">
        <ele>794.77</ele>
        <time>2020-09-07T09:41:51.999Z</time>
      </trkpt>
      <trkpt lat="45.97041" lon="5.55915">
        <ele>794.79</ele>
        <time>2020-09-07T09:42:01.149Z</time>
      </trkpt>
      <trkpt lat="45.97051" lon="5.55923">
        <ele>795.04</ele>
        <time>2020-09-07T09:42:10.392Z</time>
      </trkpt>
      <trkpt lat="45.97062" lon="5.5593">
        <ele>795.43</ele>
        <time>2020-09-07T09:42:19.537Z</time>
      </trkpt>
      <trkpt lat="45.97072" lon="5.55936">
        <ele>795.89</ele>
        <time>2020-09-07T09:42:29.097Z</time>
      </trkpt>
      <trkpt lat="45.97082" lon="5.55939">
        <ele>796.15</ele>
        <time>2020-09-07T09:42:38.453Z</time>
      </trkpt>
      <trkpt lat="45.97092" lon="5.55939">
        <ele>796.14</ele>
        <time>2020-09-07T09:42:47.522Z</time>
      </trkpt>
      <trkpt lat="45.97103" lon="5.55941">
        <ele>796.23</ele>
        <time>2020-09-07T09:42:56.999Z</time>
      </trkpt>
      <trkpt lat="45.97117" lon="5.55944">
        <ele>796.33</ele>
        <time>2020-09-07T09:43:06.771Z</time>
      </trkpt>
      <trkpt lat="45.97129" lon="5.55945">
        <ele>796.25</ele>
        <time>2020-09-07T09:43:15.872Z</time>
      </trkpt>
      <trkpt lat="45.9714" lon="5.5595">
        <ele>796.43</ele>
        <time>2020-09-07T09:43:24.999Z</time>
      </trkpt>
      <trkpt lat="45.9715" lon="5.55948">
        <ele>796.26</ele>
        <time>2020-09-07T09:43:34.372Z</time>
      </trkpt>
      <trkpt lat="45.97163" lon="5.55953">
        <ele>796.45</ele>
        <time>2020-09-07T09:43:43.468Z</time>
      </trkpt>
      <trkpt lat="45.97174" lon="5.55955">
        <ele>796.61</ele>
        <time>2020-09-07T09:43:52.528Z</time>
      </trkpt>
      <trkpt lat="45.97184" lon="5.55959">
        <ele>796.95</ele>
        <time>2020-09-07T09:44:01.807Z</time>
      </trkpt>
      <trkpt lat="45.97193" lon="5.55963">
        <ele>797.45</ele>
        <time>2020-09-07T09:44:10.876Z</time>
      </trkpt>
      <trkpt lat="45.97203" lon="5.55965">
        <ele>797.81</ele>
        <time>2020-09-07T09:44:19.957Z</time>
      </trkpt>
      <trkpt lat="45.97216" lon="5.55964">
        <ele>798.05</ele>
        <time>2020-09-07T09:44:30.000Z</time>
      </trkpt>
      <trkpt lat="45.97228" lon="5.55963">
        <ele>798.32</ele>
        <time>2020-09-07T09:44:39.336Z</time>
      </trkpt>
      <trkpt lat="45.97237" lon="5.55965">
        <ele>798.65</ele>
        <time>2020-09-07T09:44:49.000Z</time>
      </trkpt>
      <trkpt lat="45.9725" lon="5.5597">
        <ele>799.23</ele>
        <time>2020-09-07T09:44:59.000Z</time>
      </trkpt>
      <trkpt lat="45.97261" lon="5.55974">
        <ele>799.59</ele>
        <time>2020-09-07T09:45:09.000Z</time>
      </trkpt>
      <trkpt lat="45.97272" lon="5.55976">
        <ele>799.62</ele>
        <time>2020-09-07T09:45:18.369Z</time>
      </trkpt>
      <trkpt lat="45.9728" lon="5.55977">
        <ele>799.49</ele>
        <time>2020-09-07T09:45:27.490Z</time>
      </trkpt>
      <trkpt lat="45.9729" lon="5.55977">
        <ele>799.22</ele>
        <time>2020-09-07T09:45:36.509Z</time>
      </trkpt>
      <trkpt lat="45.97301" lon="5.55976">
        <ele>798.75</ele>
        <time>2020-09-07T09:45:46.000Z</time>
      </trkpt>
      <trkpt lat="45.97312" lon="5.55977">
        <ele>798.59</ele>
        <time>2020-09-07T09:45:55.357Z</time>
      </trkpt>
      <trkpt lat="45.97317" lon="5.5598">
        <ele>798.75</ele>
        <time>2020-09-07T09:46:04.397Z</time>
      </trkpt>
      <trkpt lat="45.97321" lon="5.55982">
        <ele>798.81</ele>
        <time>2020-09-07T09:46:13.857Z</time>
      </trkpt>
      <trkpt lat="45.9733" lon="5.55985">
        <ele>798.98</ele>
        <time>2020-09-07T09:46:23.474Z</time>
      </trkpt>
      <trkpt lat="45.97339" lon="5.55988">
        <ele>799.14</ele>
        <time>2020-09-07T09:46:32.613Z</time>
      </trkpt>
      <trkpt lat="45.97345" lon="5.55989">
        <ele>799.18</ele>
        <time>2020-09-07T09:46:42.000Z</time>
      </trkpt>
      <trkpt lat="45.97358" lon="5.55992">
        <ele>799.31</ele>
        <time>2020-09-07T09:46:51.830Z</time>
      </trkpt>
      <trkpt lat="45.97372" lon="5.55993">
        <ele>799.27</ele>
        <time>2020-09-07T09:47:00.896Z</time>
      </trkpt>
      <trkpt lat="45.97381" lon="5.55993">
        <ele>799.29</ele>
        <time>2020-09-07T09:47:09.951Z</time>
      </trkpt>
      <trkpt lat="45.97388" lon="5.55992">
        <ele>799.35</ele>
        <time>2020-09-07T09:47:19.450Z</time>
      </trkpt>
      <trkpt lat="45.97394" lon="5.55995">
        <ele>799.44</ele>
        <time>2020-09-07T09:47:28.649Z</time>
      </trkpt>
      <trkpt lat="45.974" lon="5.56">
        <ele>799.53</ele>
        <time>2020-09-07T09:47:38.469Z</time>
      </trkpt>
      <trkpt lat="45.97412" lon="5.56005">
        <ele>799.81</ele>
        <time>2020-09-07T09:47:47.818Z</time>
      </trkpt>
      <trkpt lat="45.97423" lon="5.56007">
        <ele>800.29</ele>
        <time>2020-09-07T09:47:57.000Z</time>
      </trkpt>
      <trkpt lat="45.97439" lon="5.5601">
        <ele>801.59</ele>
        <time>2020-09-07T09:48:07.000Z</time>
      </trkpt>
      <trkpt lat="45.97467" lon="5.56008">
        <ele>804.67</ele>
        <time>2020-09-07T09:48:16.057Z</time>
      </trkpt>
      <trkpt lat="45.97484" lon="5.56003">
        <ele>806.35</ele>
        <time>2020-09-07T09:48:25.216Z</time>
      </trkpt>
      <trkpt lat="45.97498" lon="5.55999">
        <ele>807.02</ele>
        <time>2020-09-07T09:48:34.355Z</time>
      </trkpt>
      <trkpt lat="45.97508" lon="5.55998">
        <ele>806.91</ele>
        <time>2020-09-07T09:48:44.000Z</time>
      </trkpt>
      <trkpt lat="45.97516" lon="5.55996">
        <ele>806.51</ele>
        <time>2020-09-07T09:48:53.331Z</time>
      </trkpt>
      <trkpt lat="45.97528" lon="5.55996">
        <ele>805.47</ele>
        <time>2020-09-07T09:49:03.000Z</time>
      </trkpt>
      <trkpt lat="45.97528" lon="5.55989">
        <ele>805.8</ele>
        <time>2020-09-07T09:49:12.326Z</time>
      </trkpt>
      <trkpt lat="45.97521" lon="5.55982">
        <ele>806.69</ele>
        <time>2020-09-07T09:49:21.490Z</time>
      </trkpt>
      <trkpt lat="45.97515" lon="5.55982">
        <ele>807.19</ele>
        <time>2020-09-07T09:49:31.000Z</time>
      </trkpt>
      <trkpt lat="45.97501" lon="5.55978">
        <ele>807.74</ele>
        <time>2020-09-07T09:49:40.538Z</time>
      </trkpt>
      <trkpt lat="45.97494" lon="5.55977">
        <ele>807.67</ele>
        <time>2020-09-07T09:49:49.892Z</time>
      </trkpt>
      <trkpt lat="45.97487" lon="5.55971">
        <ele>807.53</ele>
        <time>2020-09-07T09:49:59.434Z</time>
      </trkpt>
      <trkpt lat="45.97477" lon="5.55969">
        <ele>806.93</ele>
        <time>2020-09-07T09:50:08.815Z</time>
      </trkpt>
      <trkpt lat="45.97468" lon="5.55964">
        <ele>806.42</ele>
        <time>2020-09-07T09:50:18.075Z</time>
      </trkpt>
      <trkpt lat="45.97459" lon="5.5596">
        <ele>805.73</ele>
        <time>2020-09-07T09:50:27.411Z</time>
      </trkpt>
      <trkpt lat="45.97448" lon="5.55962">
        <ele>804.52</ele>
        <time>2020-09-07T09:50:37.434Z</time>
      </trkpt>
      <trkpt lat="45.97439" lon="5.55956">
        <ele>804.08</ele>
        <time>2020-09-07T09:50:47.000Z</time>
      </trkpt>
      <trkpt lat="45.97429" lon="5.55947">
        <ele>803.86</ele>
        <time>2020-09-07T09:50:56.012Z</time>
      </trkpt>
      <trkpt lat="45.97418" lon="5.55944">
        <ele>803.23</ele>
        <time>2020-09-07T09:51:05.391Z</time>
      </trkpt>
      <trkpt lat="45.97409" lon="5.55937">
        <ele>802.97</ele>
        <time>2020-09-07T09:51:14.488Z</time>
      </trkpt>
      <trkpt lat="45.974" lon="5.55926">
        <ele>802.65</ele>
        <time>2020-09-07T09:51:23.875Z</time>
      </trkpt>
      <trkpt lat="45.97392" lon="5.55915">
        <ele>802.17</ele>
        <time>2020-09-07T09:51:33.357Z</time>
      </trkpt>
      <trkpt lat="45.97388" lon="5.55905">
        <ele>802.03</ele>
        <time>2020-09-07T09:51:42.475Z</time>
      </trkpt>
      <trkpt lat="45.97385" lon="5.55892">
        <ele>802.28</ele>
        <time>2020-09-07T09:51:51.735Z</time>
      </trkpt>
      <trkpt lat="45.97384" lon="5.55884">
        <ele>802.61</ele>
        <time>2020-09-07T09:52:01.111Z</time>
      </trkpt>
      <trkpt lat="45.97383" lon="5.5587">
        <ele>803.28</ele>
        <time>2020-09-07T09:52:11.000Z</time>
      </trkpt>
      <trkpt lat="45.97381" lon="5.55852">
        <ele>804.24</ele>
        <time>2020-09-07T09:52:20.569Z</time>
      </trkpt>
      <trkpt lat="45.97371" lon="5.55835">
        <ele>804.22</ele>
        <time>2020-09-07T09:52:30.063Z</time>
      </trkpt>
      <trkpt lat="45.9736" lon="5.55824">
        <ele>803.64</ele>
        <time>2020-09-07T09:52:40.000Z</time>
      </trkpt>
      <trkpt lat="45.97353" lon="5.5582">
        <ele>803.02</ele>
        <time>2020-09-07T09:52:50.000Z</time>
      </trkpt>
      <trkpt lat="45.97346" lon="5.5581">
        <ele>802.94</ele>
        <time>2020-09-07T09:52:59.294Z</time>
      </trkpt>
      <trkpt lat="45.97344" lon="5.55799">
        <ele>803.55</ele>
        <time>2020-09-07T09:53:08.834Z</time>
      </trkpt>
      <trkpt lat="45.97347" lon="5.55791">
        <ele>804.57</ele>
        <time>2020-09-07T09:53:17.933Z</time>
      </trkpt>
      <trkpt lat="45.97348" lon="5.55783">
        <ele>805.25</ele>
        <time>2020-09-07T09:53:27.000Z</time>
      </trkpt>
      <trkpt lat="45.97342" lon="5.55772">
        <ele>805.56</ele>
        <time>2020-09-07T09:53:36.349Z</time>
      </trkpt>
      <trkpt lat="45.97329" lon="5.55757">
        <ele>805.9</ele>
        <time>2020-09-07T09:53:46.000Z</time>
      </trkpt>
      <trkpt lat="45.97314" lon="5.55738">
        <ele>806.87</ele>
        <time>2020-09-07T09:53:55.827Z</time>
      </trkpt>
      <trkpt lat="45.97301" lon="5.55728">
        <ele>806.87</ele>
        <time>2020-09-07T09:54:05.000Z</time>
      </trkpt>
      <trkpt lat="45.97291" lon="5.55726">
        <ele>806.4</ele>
        <time>2020-09-07T09:54:14.117Z</time>
      </trkpt>
      <trkpt lat="45.97281" lon="5.55721">
        <ele>806.15</ele>
        <time>2020-09-07T09:54:24.000Z</time>
      </trkpt>
      <trkpt lat="45.97273" lon="5.55716">
        <ele>806.01</ele>
        <time>2020-09-07T09:54:33.205Z</time>
      </trkpt>
      <trkpt lat="45.97267" lon="5.55706">
        <ele>806.3</ele>
        <time>2020-09-07T09:54:42.855Z</time>
      </trkpt>
      <trkpt lat="45.97263" lon="5.55696">
        <ele>806.71</ele>
        <time>2020-09-07T09:54:52.000Z</time>
      </trkpt>
      <trkpt lat="45.97262" lon="5.55688">
        <ele>807.39</ele>
        <time>2020-09-07T09:55:02.000Z</time>
      </trkpt>
      <trkpt lat="45.97262" lon="5.55672">
        <ele>809.11</ele>
        <time>2020-09-07T09:55:11.768Z</time>
      </trkpt>
      <trkpt lat="45.97254" lon="5.5566">
        <ele>810.32</ele>
        <time>2020-09-07T09:55:21.000Z</time>
      </trkpt>
      <trkpt lat="45.97243" lon="5.55652">
        <ele>810.95</ele>
        <time>2020-09-07T09:55:30.134Z</time>
      </trkpt>
      <trkpt lat="45.97233" lon="5.55648">
        <ele>811.41</ele>
        <time>2020-09-07T09:55:40.000Z</time>
      </trkpt>
      <trkpt lat="45.97228" lon="5.55644">
        <ele>811.85</ele>
        <time>2020-09-07T09:55:49.292Z</time>
      </trkpt>
      <trkpt lat="45.97219" lon="5.5564">
        <ele>812.48</ele>
        <time>2020-09-07T09:55:58.398Z</time>
      </trkpt>
      <trkpt lat="45.97214" lon="5.55637">
        <ele>813.07</ele>
        <time>2020-09-07T09:56:07.999Z</time>
      </trkpt>
      <trkpt lat="45.97208" lon="5.5563">
        <ele>814.43</ele>
        <time>2020-09-07T09:56:17.769Z</time>
      </trkpt>
      <trkpt lat="45.97203" lon="5.55623">
        <ele>815.78</ele>
        <time>2020-09-07T09:56:26.999Z</time>
      </trkpt>
      <trkpt lat="45.97195" lon="5.55614">
        <ele>817.51</ele>
        <time>2020-09-07T09:56:36.177Z</time>
      </trkpt>
      <trkpt lat="45.97186" lon="5.556">
        <ele>820.24</ele>
        <time>2020-09-07T09:56:45.999Z</time>
      </trkpt>
      <trkpt lat="45.97177" lon="5.55588">
        <ele>822.37</ele>
        <time>2020-09-07T09:56:55.393Z</time>
      </trkpt>
      <trkpt lat="45.97169" lon="5.55579">
        <ele>823.89</ele>
        <time>2020-09-07T09:57:04.999Z</time>
      </trkpt>
      <trkpt lat="45.97163" lon="5.55574">
        <ele>824.61</ele>
        <time>2020-09-07T09:57:14.999Z</time>
      </trkpt>
      <trkpt lat="45.97161" lon="5.55572">
        <ele>824.84</ele>
        <time>2020-09-07T09:57:25.999Z</time>
      </trkpt>
      <trkpt lat="45.97155" lon="5.55565">
        <ele>825.88</ele>
        <time>2020-09-07T09:57:36.210Z</time>
      </trkpt>
      <trkpt lat="45.97153" lon="5.55562">
        <ele>826.38</ele>
        <time>2020-09-07T09:57:45.999Z</time>
      </trkpt>
      <trkpt lat="45.97149" lon="5.55557">
        <ele>827.04</ele>
        <time>2020-09-07T09:57:55.197Z</time>
      </trkpt>
      <trkpt lat="45.97148" lon="5.55554">
        <ele>827.55</ele>
        <time>2020-09-07T09:58:04.475Z</time>
      </trkpt>
      <trkpt lat="45.97141" lon="5.55552">
        <ele>827.66</ele>
        <time>2020-09-07T09:58:13.853Z</time>
      </trkpt>
      <trkpt lat="45.97139" lon="5.55541">
        <ele>829.53</ele>
        <time>2020-09-07T09:58:22.999Z</time>
      </trkpt>
      <trkpt lat="45.97136" lon="5.5553">
        <ele>831.16</ele>
        <time>2020-09-07T09:58:32.357Z</time>
      </trkpt>
      <trkpt lat="45.97135" lon="5.55525">
        <ele>832.07</ele>
        <time>2020-09-07T09:58:41.999Z</time>
      </trkpt>
      <trkpt lat="45.97131" lon="5.55521">
        <ele>832.63</ele>
        <time>2020-09-07T09:58:51.213Z</time>
      </trkpt>
      <trkpt lat="45.97125" lon="5.55511">
        <ele>834.05</ele>
        <time>2020-09-07T09:59:00.849Z</time>
      </trkpt>
      <trkpt lat="45.97125" lon="5.55504">
        <ele>835.17</ele>
        <time>2020-09-07T09:59:09.999Z</time>
      </trkpt>
      <trkpt lat="45.97125" lon="5.55499">
        <ele>836.05</ele>
        <time>2020-09-07T09:59:19.838Z</time>
      </trkpt>
      <trkpt lat="45.97126" lon="5.5549">
        <ele>837.49</ele>
        <time>2020-09-07T09:59:28.996Z</time>
      </trkpt>
      <trkpt lat="45.97124" lon="5.55483">
        <ele>838.72</ele>
        <time>2020-09-07T09:59:38.115Z</time>
      </trkpt>
      <trkpt lat="45.97123" lon="5.55472">
        <ele>840.57</ele>
        <time>2020-09-07T09:59:47.999Z</time>
      </trkpt>
      <trkpt lat="45.9712" lon="5.5546">
        <ele>842.41</ele>
        <time>2020-09-07T09:59:57.999Z</time>
      </trkpt>
      <trkpt lat="45.97115" lon="5.5545">
        <ele>843.79</ele>
        <time>2020-09-07T10:00:07.170Z</time>
      </trkpt>
      <trkpt lat="45.97111" lon="5.55444">
        <ele>844.6</ele>
        <time>2020-09-07T10:00:16.392Z</time>
      </trkpt>
      <trkpt lat="45.97108" lon="5.5544">
        <ele>845.23</ele>
        <time>2020-09-07T10:00:25.769Z</time>
      </trkpt>
      <trkpt lat="45.97099" lon="5.55431">
        <ele>846.28</ele>
        <time>2020-09-07T10:00:35.069Z</time>
      </trkpt>
      <trkpt lat="45.97084" lon="5.55418">
        <ele>847.68</ele>
        <time>2020-09-07T10:00:44.389Z</time>
      </trkpt>
      <trkpt lat="45.97069" lon="5.55413">
        <ele>847.8</ele>
        <time>2020-09-07T10:00:53.999Z</time>
      </trkpt>
      <trkpt lat="45.97051" lon="5.5541">
        <ele>847.05</ele>
        <time>2020-09-07T10:01:03.217Z</time>
      </trkpt>
      <trkpt lat="45.97039" lon="5.55411">
        <ele>845.7</ele>
        <time>2020-09-07T10:01:12.523Z</time>
      </trkpt>
      <trkpt lat="45.97029" lon="5.55411">
        <ele>844.96</ele>
        <time>2020-09-07T10:01:21.999Z</time>
      </trkpt>
      <trkpt lat="45.97021" lon="5.55409">
        <ele>844.83</ele>
        <time>2020-09-07T10:01:31.334Z</time>
      </trkpt>
      <trkpt lat="45.97013" lon="5.55406">
        <ele>844.71</ele>
        <time>2020-09-07T10:01:40.491Z</time>
      </trkpt>
      <trkpt lat="45.97004" lon="5.55398">
        <ele>845.92</ele>
        <time>2020-09-07T10:01:49.539Z</time>
      </trkpt>
      <trkpt lat="45.96998" lon="5.55388">
        <ele>847.97</ele>
        <time>2020-09-07T10:01:58.910Z</time>
      </trkpt>
      <trkpt lat="45.9699" lon="5.5538">
        <ele>849.38</ele>
        <time>2020-09-07T10:02:08.231Z</time>
      </trkpt>
      <trkpt lat="45.96979" lon="5.55376">
        <ele>849.71</ele>
        <time>2020-09-07T10:02:17.909Z</time>
      </trkpt>
      <trkpt lat="45.9697" lon="5.55371">
        <ele>850.43</ele>
        <time>2020-09-07T10:02:26.999Z</time>
      </trkpt>
      <trkpt lat="45.96964" lon="5.55366">
        <ele>851.16</ele>
        <time>2020-09-07T10:02:36.069Z</time>
      </trkpt>
      <trkpt lat="45.9696" lon="5.55357">
        <ele>853</ele>
        <time>2020-09-07T10:02:45.147Z</time>
      </trkpt>
      <trkpt lat="45.96956" lon="5.55344">
        <ele>855.34</ele>
        <time>2020-09-07T10:02:54.999Z</time>
      </trkpt>
      <trkpt lat="45.9695" lon="5.55335">
        <ele>856.79</ele>
        <time>2020-09-07T10:03:04.135Z</time>
      </trkpt>
      <trkpt lat="45.96942" lon="5.55332">
        <ele>857.21</ele>
        <time>2020-09-07T10:03:13.273Z</time>
      </trkpt>
      <trkpt lat="45.96938" lon="5.5533">
        <ele>857.3</ele>
        <time>2020-09-07T10:03:22.274Z</time>
      </trkpt>
      <trkpt lat="45.96931" lon="5.5533">
        <ele>857.17</ele>
        <time>2020-09-07T10:03:31.331Z</time>
      </trkpt>
      <trkpt lat="45.96925" lon="5.55326">
        <ele>857.74</ele>
        <time>2020-09-07T10:03:40.492Z</time>
      </trkpt>
      <trkpt lat="45.96918" lon="5.55322">
        <ele>858.38</ele>
        <time>2020-09-07T10:03:50.149Z</time>
      </trkpt>
      <trkpt lat="45.96911" lon="5.55319">
        <ele>858.84</ele>
        <time>2020-09-07T10:03:59.999Z</time>
      </trkpt>
      <trkpt lat="45.96908" lon="5.55317">
        <ele>859.42</ele>
        <time>2020-09-07T10:04:09.999Z</time>
      </trkpt>
      <trkpt lat="45.9691" lon="5.5532">
        <ele>858.62</ele>
        <time>2020-09-07T10:04:19.437Z</time>
      </trkpt>
      <trkpt lat="45.96913" lon="5.55319">
        <ele>859.08</ele>
        <time>2020-09-07T10:04:28.999Z</time>
      </trkpt>
      <trkpt lat="45.96913" lon="5.55316">
        <ele>859.82</ele>
        <time>2020-09-07T10:04:38.999Z</time>
      </trkpt>
      <trkpt lat="45.96911" lon="5.55308">
        <ele>861.67</ele>
        <time>2020-09-07T10:04:48.999Z</time>
      </trkpt>
      <trkpt lat="45.96911" lon="5.55311">
        <ele>860.94</ele>
        <time>2020-09-07T10:04:58.313Z</time>
      </trkpt>
      <trkpt lat="45.96907" lon="5.55307">
        <ele>861.87</ele>
        <time>2020-09-07T10:05:07.551Z</time>
      </trkpt>
      <trkpt lat="45.96903" lon="5.55304">
        <ele>862.64</ele>
        <time>2020-09-07T10:05:16.999Z</time>
      </trkpt>
      <trkpt lat="45.96899" lon="5.55301">
        <ele>863.23</ele>
        <time>2020-09-07T10:05:26.050Z</time>
      </trkpt>
      <trkpt lat="45.96896" lon="5.553">
        <ele>863.19</ele>
        <time>2020-09-07T10:05:35.999Z</time>
      </trkpt>
      <trkpt lat="45.96898" lon="5.55302">
        <ele>862.78</ele>
        <time>2020-09-07T10:05:45.999Z</time>
      </trkpt>
      <trkpt lat="45.96897" lon="5.553">
        <ele>863.32</ele>
        <time>2020-09-07T10:05:57.999Z</time>
      </trkpt>
      <trkpt lat="45.96894" lon="5.55299">
        <ele>863.5</ele>
        <time>2020-09-07T10:06:07.999Z</time>
      </trkpt>
      <trkpt lat="45.9689" lon="5.55299">
        <ele>863.11</ele>
        <time>2020-09-07T10:06:17.999Z</time>
      </trkpt>
      <trkpt lat="45.96888" lon="5.553">
        <ele>862.92</ele>
        <time>2020-09-07T10:06:27.999Z</time>
      </trkpt>
      <trkpt lat="45.96886" lon="5.55299">
        <ele>862.96</ele>
        <time>2020-09-07T10:06:37.929Z</time>
      </trkpt>
      <trkpt lat="45.9688" lon="5.55301">
        <ele>862.2</ele>
        <time>2020-09-07T10:06:47.467Z</time>
      </trkpt>
      <trkpt lat="45.96873" lon="5.553">
        <ele>862.05</ele>
        <time>2020-09-07T10:06:56.808Z</time>
      </trkpt>
      <trkpt lat="45.96866" lon="5.55299">
        <ele>861.88</ele>
        <time>2020-09-07T10:07:05.999Z</time>
      </trkpt>
      <trkpt lat="45.9686" lon="5.55303">
        <ele>860.9</ele>
        <time>2020-09-07T10:07:15.416Z</time>
      </trkpt>
      <trkpt lat="45.96843" lon="5.553">
        <ele>860.56</ele>
        <time>2020-09-07T10:07:24.773Z</time>
      </trkpt>
      <trkpt lat="45.96829" lon="5.55292">
        <ele>861.25</ele>
        <time>2020-09-07T10:07:34.000Z</time>
      </trkpt>
      <trkpt lat="45.96816" lon="5.55289">
        <ele>861.52</ele>
        <time>2020-09-07T10:07:43.273Z</time>
      </trkpt>
      <trkpt lat="45.968" lon="5.5529">
        <ele>861.46</ele>
        <time>2020-09-07T10:07:52.471Z</time>
      </trkpt>
      <trkpt lat="45.96785" lon="5.55295">
        <ele>860.64</ele>
        <time>2020-09-07T10:08:02.000Z</time>
      </trkpt>
      <trkpt lat="45.96773" lon="5.55298">
        <ele>859.73</ele>
        <time>2020-09-07T10:08:11.329Z</time>
      </trkpt>
      <trkpt lat="45.96767" lon="5.55301">
        <ele>858.68</ele>
        <time>2020-09-07T10:08:21.000Z</time>
      </trkpt>
      <trkpt lat="45.96762" lon="5.55304">
        <ele>857.7</ele>
        <time>2020-09-07T10:08:30.415Z</time>
      </trkpt>
      <trkpt lat="45.96757" lon="5.55304">
        <ele>857.13</ele>
        <time>2020-09-07T10:08:39.876Z</time>
      </trkpt>
      <trkpt lat="45.9675" lon="5.55312">
        <ele>854.21</ele>
        <time>2020-09-07T10:08:49.000Z</time>
      </trkpt>
      <trkpt lat="45.96733" lon="5.55312">
        <ele>852.11</ele>
        <time>2020-09-07T10:08:58.253Z</time>
      </trkpt>
      <trkpt lat="45.9672" lon="5.55309">
        <ele>850.94</ele>
        <time>2020-09-07T10:09:07.333Z</time>
      </trkpt>
      <trkpt lat="45.96712" lon="5.55306">
        <ele>850.32</ele>
        <time>2020-09-07T10:09:16.411Z</time>
      </trkpt>
      <trkpt lat="45.96705" lon="5.55307">
        <ele>849.01</ele>
        <time>2020-09-07T10:09:25.970Z</time>
      </trkpt>
      <trkpt lat="45.96699" lon="5.55307">
        <ele>847.87</ele>
        <time>2020-09-07T10:09:35.400Z</time>
      </trkpt>
      <trkpt lat="45.96693" lon="5.55311">
        <ele>845.4</ele>
        <time>2020-09-07T10:09:44.719Z</time>
      </trkpt>
      <trkpt lat="45.96684" lon="5.55309">
        <ele>844.7</ele>
        <time>2020-09-07T10:09:54.136Z</time>
      </trkpt>
      <trkpt lat="45.96674" lon="5.55296">
        <ele>848.14</ele>
        <time>2020-09-07T10:10:04.000Z</time>
      </trkpt>
      <trkpt lat="45.96662" lon="5.55289">
        <ele>849.01</ele>
        <time>2020-09-07T10:10:13.375Z</time>
      </trkpt>
      <trkpt lat="45.96652" lon="5.55283">
        <ele>849.11</ele>
        <time>2020-09-07T10:10:23.000Z</time>
      </trkpt>
      <trkpt lat="45.96644" lon="5.55279">
        <ele>848.75</ele>
        <time>2020-09-07T10:10:32.414Z</time>
      </trkpt>
      <trkpt lat="45.96637" lon="5.55277">
        <ele>847.75</ele>
        <time>2020-09-07T10:10:41.850Z</time>
      </trkpt>
      <trkpt lat="45.96629" lon="5.55269">
        <ele>846.32</ele>
        <time>2020-09-07T10:10:51.000Z</time>
      </trkpt>
      <trkpt lat="45.96618" lon="5.55262">
        <ele>843.21</ele>
        <time>2020-09-07T10:11:00.098Z</time>
      </trkpt>
      <trkpt lat="45.9661" lon="5.5526">
        <ele>840.86</ele>
        <time>2020-09-07T10:11:09.256Z</time>
      </trkpt>
      <trkpt lat="45.96601" lon="5.55264">
        <ele>839.46</ele>
        <time>2020-09-07T10:11:18.456Z</time>
      </trkpt>
      <trkpt lat="45.96586" lon="5.5527">
        <ele>837.97</ele>
        <time>2020-09-07T10:11:27.836Z</time>
      </trkpt>
      <trkpt lat="45.96575" lon="5.55276">
        <ele>837.61</ele>
        <time>2020-09-07T10:11:37.433Z</time>
      </trkpt>
      <trkpt lat="45.96566" lon="5.5528">
        <ele>837.34</ele>
        <time>2020-09-07T10:11:46.554Z</time>
      </trkpt>
      <trkpt lat="45.96559" lon="5.55283">
        <ele>837.14</ele>
        <time>2020-09-07T10:11:55.576Z</time>
      </trkpt>
      <trkpt lat="45.9655" lon="5.55274">
        <ele>835.23</ele>
        <time>2020-09-07T10:12:05.070Z</time>
      </trkpt>
      <trkpt lat="45.96546" lon="5.55263">
        <ele>833.01</ele>
        <time>2020-09-07T10:12:14.110Z</time>
      </trkpt>
      <trkpt lat="45.9654" lon="5.55259">
        <ele>832.13</ele>
        <time>2020-09-07T10:12:24.000Z</time>
      </trkpt>
      <trkpt lat="45.96535" lon="5.55259">
        <ele>831.86</ele>
        <time>2020-09-07T10:12:34.000Z</time>
      </trkpt>
      <trkpt lat="45.9653" lon="5.55258">
        <ele>831.54</ele>
        <time>2020-09-07T10:12:43.289Z</time>
      </trkpt>
      <trkpt lat="45.96525" lon="5.55256">
        <ele>831.19</ele>
        <time>2020-09-07T10:12:53.000Z</time>
      </trkpt>
      <trkpt lat="45.96523" lon="5.55254">
        <ele>830.74</ele>
        <time>2020-09-07T10:13:02.276Z</time>
      </trkpt>
      <trkpt lat="45.96519" lon="5.55255">
        <ele>830.71</ele>
        <time>2020-09-07T10:13:11.356Z</time>
      </trkpt>
      <trkpt lat="45.96517" lon="5.5526">
        <ele>831.53</ele>
        <time>2020-09-07T10:13:20.914Z</time>
      </trkpt>
      <trkpt lat="45.96517" lon="5.55263">
        <ele>831.9</ele>
        <time>2020-09-07T10:13:30.000Z</time>
      </trkpt>
      <trkpt lat="45.96512" lon="5.55266">
        <ele>832.07</ele>
        <time>2020-09-07T10:13:39.231Z</time>
      </trkpt>
      <trkpt lat="45.96506" lon="5.55275">
        <ele>832.59</ele>
        <time>2020-09-07T10:13:49.000Z</time>
      </trkpt>
      <trkpt lat="45.96486" lon="5.55274">
        <ele>831.59</ele>
        <time>2020-09-07T10:13:58.392Z</time>
      </trkpt>
      <trkpt lat="45.96473" lon="5.55277">
        <ele>831.64</ele>
        <time>2020-09-07T10:14:07.977Z</time>
      </trkpt>
      <trkpt lat="45.96467" lon="5.55281">
        <ele>831.69</ele>
        <time>2020-09-07T10:14:17.156Z</time>
      </trkpt>
      <trkpt lat="45.96462" lon="5.55283">
        <ele>831.63</ele>
        <time>2020-09-07T10:14:26.215Z</time>
      </trkpt>
      <trkpt lat="45.96455" lon="5.55285">
        <ele>831.45</ele>
        <time>2020-09-07T10:14:35.353Z</time>
      </trkpt>
      <trkpt lat="45.96449" lon="5.55287">
        <ele>831.12</ele>
        <time>2020-09-07T10:14:45.000Z</time>
      </trkpt>
      <trkpt lat="45.96441" lon="5.55296">
        <ele>830.08</ele>
        <time>2020-09-07T10:14:54.253Z</time>
      </trkpt>
      <trkpt lat="45.96426" lon="5.5531">
        <ele>827.41</ele>
        <time>2020-09-07T10:15:04.000Z</time>
      </trkpt>
      <trkpt lat="45.96408" lon="5.55319">
        <ele>824.59</ele>
        <time>2020-09-07T10:15:13.449Z</time>
      </trkpt>
      <trkpt lat="45.96379" lon="5.55324">
        <ele>824.3</ele>
        <time>2020-09-07T10:15:22.913Z</time>
      </trkpt>
      <trkpt lat="45.96369" lon="5.55327">
        <ele>824.24</ele>
        <time>2020-09-07T10:15:32.069Z</time>
      </trkpt>
      <trkpt lat="45.96363" lon="5.55335">
        <ele>825.08</ele>
        <time>2020-09-07T10:15:42.000Z</time>
      </trkpt>
      <trkpt lat="45.96361" lon="5.55346">
        <ele>826.12</ele>
        <time>2020-09-07T10:15:51.516Z</time>
      </trkpt>
      <trkpt lat="45.96363" lon="5.55356">
        <ele>826.88</ele>
        <time>2020-09-07T10:16:00.534Z</time>
      </trkpt>
      <trkpt lat="45.96371" lon="5.55372">
        <ele>826.79</ele>
        <time>2020-09-07T10:16:10.000Z</time>
      </trkpt>
      <trkpt lat="45.96379" lon="5.55381">
        <ele>825.85</ele>
        <time>2020-09-07T10:16:19.032Z</time>
      </trkpt>
      <trkpt lat="45.96387" lon="5.55386">
        <ele>824.95</ele>
        <time>2020-09-07T10:16:28.152Z</time>
      </trkpt>
      <trkpt lat="45.96392" lon="5.55386">
        <ele>824.46</ele>
        <time>2020-09-07T10:16:37.232Z</time>
      </trkpt>
      <trkpt lat="45.96402" lon="5.55391">
        <ele>823.56</ele>
        <time>2020-09-07T10:16:46.308Z</time>
      </trkpt>
      <trkpt lat="45.96414" lon="5.55397">
        <ele>823.03</ele>
        <time>2020-09-07T10:16:55.668Z</time>
      </trkpt>
      <trkpt lat="45.96426" lon="5.55402">
        <ele>823.17</ele>
        <time>2020-09-07T10:17:04.907Z</time>
      </trkpt>
      <trkpt lat="45.96435" lon="5.55412">
        <ele>822.86</ele>
        <time>2020-09-07T10:17:14.000Z</time>
      </trkpt>
      <trkpt lat="45.96444" lon="5.55425">
        <ele>822.04</ele>
        <time>2020-09-07T10:17:23.375Z</time>
      </trkpt>
      <trkpt lat="45.9645" lon="5.55434">
        <ele>821.35</ele>
        <time>2020-09-07T10:17:33.000Z</time>
      </trkpt>
      <trkpt lat="45.96453" lon="5.55441">
        <ele>820.65</ele>
        <time>2020-09-07T10:17:43.000Z</time>
      </trkpt>
      <trkpt lat="45.96459" lon="5.55461">
        <ele>818.59</ele>
        <time>2020-09-07T10:17:52.334Z</time>
      </trkpt>
      <trkpt lat="45.96461" lon="5.55475">
        <ele>816.98</ele>
        <time>2020-09-07T10:18:01.492Z</time>
      </trkpt>
      <trkpt lat="45.96459" lon="5.55488">
        <ele>815.66</ele>
        <time>2020-09-07T10:18:10.650Z</time>
      </trkpt>
      <trkpt lat="45.96458" lon="5.55495">
        <ele>814.99</ele>
        <time>2020-09-07T10:18:20.000Z</time>
      </trkpt>
      <trkpt lat="45.96456" lon="5.55505">
        <ele>814.08</ele>
        <time>2020-09-07T10:18:29.496Z</time>
      </trkpt>
      <trkpt lat="45.9645" lon="5.55504">
        <ele>814.19</ele>
        <time>2020-09-07T10:18:39.076Z</time>
      </trkpt>
      <trkpt lat="45.96447" lon="5.55508">
        <ele>813.9</ele>
        <time>2020-09-07T10:18:48.495Z</time>
      </trkpt>
      <trkpt lat="45.96434" lon="5.55527">
        <ele>812.56</ele>
        <time>2020-09-07T10:18:58.000Z</time>
      </trkpt>
      <trkpt lat="45.96422" lon="5.55538">
        <ele>812</ele>
        <time>2020-09-07T10:19:07.434Z</time>
      </trkpt>
      <trkpt lat="45.96411" lon="5.5554">
        <ele>812.06</ele>
        <time>2020-09-07T10:19:16.934Z</time>
      </trkpt>
      <trkpt lat="45.96401" lon="5.55541">
        <ele>812.27</ele>
        <time>2020-09-07T10:19:26.194Z</time>
      </trkpt>
      <trkpt lat="45.96393" lon="5.55543">
        <ele>812.37</ele>
        <time>2020-09-07T10:19:35.393Z</time>
      </trkpt>
      <trkpt lat="45.96382" lon="5.55546">
        <ele>812.43</ele>
        <time>2020-09-07T10:19:44.452Z</time>
      </trkpt>
      <trkpt lat="45.96372" lon="5.55549">
        <ele>812.51</ele>
        <time>2020-09-07T10:19:53.511Z</time>
      </trkpt>
      <trkpt lat="45.96362" lon="5.5555">
        <ele>812.73</ele>
        <time>2020-09-07T10:20:02.730Z</time>
      </trkpt>
      <trkpt lat="45.96354" lon="5.55548">
        <ele>813.12</ele>
        <time>2020-09-07T10:20:12.149Z</time>
      </trkpt>
      <trkpt lat="45.96341" lon="5.55547">
        <ele>813.45</ele>
        <time>2020-09-07T10:20:21.999Z</time>
      </trkpt>
      <trkpt lat="45.96331" lon="5.55547">
        <ele>813.7</ele>
        <time>2020-09-07T10:20:31.999Z</time>
      </trkpt>
      <trkpt lat="45.96322" lon="5.55549">
        <ele>814.25</ele>
        <time>2020-09-07T10:20:41.036Z</time>
      </trkpt>
      <trkpt lat="45.96312" lon="5.55551">
        <ele>815.73</ele>
        <time>2020-09-07T10:20:50.999Z</time>
      </trkpt>
      <trkpt lat="45.963" lon="5.55552">
        <ele>818.1</ele>
        <time>2020-09-07T10:21:00.875Z</time>
      </trkpt>
      <trkpt lat="45.96292" lon="5.55549">
        <ele>819.69</ele>
        <time>2020-09-07T10:21:09.999Z</time>
      </trkpt>
      <trkpt lat="45.96286" lon="5.55547">
        <ele>820.68</ele>
        <time>2020-09-07T10:21:19.311Z</time>
      </trkpt>
      <trkpt lat="45.9628" lon="5.55551">
        <ele>820.72</ele>
        <time>2020-09-07T10:21:28.999Z</time>
      </trkpt>
      <trkpt lat="45.96274" lon="5.55558">
        <ele>819.77</ele>
        <time>2020-09-07T10:21:38.086Z</time>
      </trkpt>
      <trkpt lat="45.96265" lon="5.5556">
        <ele>818.28</ele>
        <time>2020-09-07T10:21:47.339Z</time>
      </trkpt>
      <trkpt lat="45.96256" lon="5.55563">
        <ele>815.17</ele>
        <time>2020-09-07T10:21:56.935Z</time>
      </trkpt>
      <trkpt lat="45.96249" lon="5.55563">
        <ele>811.36</ele>
        <time>2020-09-07T10:22:05.997Z</time>
      </trkpt>
      <trkpt lat="45.96236" lon="5.55566">
        <ele>801.2</ele>
        <time>2020-09-07T10:22:15.176Z</time>
      </trkpt>
      <trkpt lat="45.96233" lon="5.55575">
        <ele>797.33</ele>
        <time>2020-09-07T10:22:24.315Z</time>
      </trkpt>
      <trkpt lat="45.96233" lon="5.55584">
        <ele>797.23</ele>
        <time>2020-09-07T10:22:33.370Z</time>
      </trkpt>
      <trkpt lat="45.96233" lon="5.55589">
        <ele>797.75</ele>
        <time>2020-09-07T10:22:42.999Z</time>
      </trkpt>
      <trkpt lat="45.96232" lon="5.556">
        <ele>796.92</ele>
        <time>2020-09-07T10:22:52.372Z</time>
      </trkpt>
      <trkpt lat="45.96224" lon="5.5561">
        <ele>787.83</ele>
        <time>2020-09-07T10:23:01.568Z</time>
      </trkpt>
      <trkpt lat="45.96222" lon="5.55616">
        <ele>785.14</ele>
        <time>2020-09-07T10:23:10.999Z</time>
      </trkpt>
      <trkpt lat="45.96219" lon="5.55627">
        <ele>782.1</ele>
        <time>2020-09-07T10:23:20.999Z</time>
      </trkpt>
      <trkpt lat="45.96214" lon="5.55638">
        <ele>774.82</ele>
        <time>2020-09-07T10:23:30.099Z</time>
      </trkpt>
      <trkpt lat="45.96211" lon="5.55647">
        <ele>770.2</ele>
        <time>2020-09-07T10:23:39.999Z</time>
      </trkpt>
      <trkpt lat="45.96207" lon="5.55658">
        <ele>762.69</ele>
        <time>2020-09-07T10:23:49.197Z</time>
      </trkpt>
      <trkpt lat="45.96199" lon="5.55667">
        <ele>749.09</ele>
        <time>2020-09-07T10:23:58.375Z</time>
      </trkpt>
      <trkpt lat="45.96193" lon="5.55663">
        <ele>740.82</ele>
        <time>2020-09-07T10:24:07.999Z</time>
      </trkpt>
      <trkpt lat="45.96188" lon="5.5566">
        <ele>734.6</ele>
        <time>2020-09-07T10:24:17.093Z</time>
      </trkpt>
      <trkpt lat="45.96186" lon="5.55649">
        <ele>734.05</ele>
        <time>2020-09-07T10:24:26.999Z</time>
      </trkpt>
      <trkpt lat="45.96188" lon="5.55651">
        <ele>735.5</ele>
        <time>2020-09-07T10:24:45.999Z</time>
      </trkpt>
      <trkpt lat="45.96187" lon="5.55647">
        <ele>735.17</ele>
        <time>2020-09-07T10:24:55.999Z</time>
      </trkpt>
      <trkpt lat="45.96188" lon="5.55649">
        <ele>736.6</ele>
        <time>2020-09-07T10:25:12.999Z</time>
      </trkpt>
      <trkpt lat="45.96189" lon="5.55651">
        <ele>737.35</ele>
        <time>2020-09-07T10:26:14.130Z</time>
      </trkpt>
      <trkpt lat="45.9619" lon="5.55654">
        <ele>738.53</ele>
        <time>2020-09-07T10:26:36.999Z</time>
      </trkpt>
      <trkpt lat="45.9619" lon="5.55657">
        <ele>738.1</ele>
        <time>2020-09-07T10:26:46.999Z</time>
      </trkpt>
      <trkpt lat="45.96192" lon="5.55658">
        <ele>740.38</ele>
        <time>2020-09-07T10:27:31.999Z</time>
      </trkpt>
      <trkpt lat="45.96192" lon="5.55655">
        <ele>740.68</ele>
        <time>2020-09-07T11:04:57.000Z</time>
      </trkpt>
      <trkpt lat="45.96193" lon="5.55655">
        <ele>743.28</ele>
        <time>2020-09-07T11:05:45.000Z</time>
      </trkpt>
      <trkpt lat="45.96194" lon="5.55658">
        <ele>742.96</ele>
        <time>2020-09-07T11:06:50.000Z</time>
      </trkpt>
      <trkpt lat="45.96193" lon="5.55661">
        <ele>741.99</ele>
        <time>2020-09-07T11:07:14.000Z</time>
      </trkpt>
      <trkpt lat="45.96197" lon="5.55666">
        <ele>745.56</ele>
        <time>2020-09-07T11:07:24.000Z</time>
      </trkpt>
      <trkpt lat="45.962" lon="5.55678">
        <ele>748.6</ele>
        <time>2020-09-07T11:07:34.000Z</time>
      </trkpt>
      <trkpt lat="45.96207" lon="5.55691">
        <ele>756.35</ele>
        <time>2020-09-07T11:07:44.000Z</time>
      </trkpt>
      <trkpt lat="45.96212" lon="5.55706">
        <ele>761.52</ele>
        <time>2020-09-07T11:07:54.000Z</time>
      </trkpt>
      <trkpt lat="45.96218" lon="5.55713">
        <ele>771.45</ele>
        <time>2020-09-07T11:08:04.000Z</time>
      </trkpt>
      <trkpt lat="45.96225" lon="5.55721">
        <ele>780.11</ele>
        <time>2020-09-07T11:08:14.000Z</time>
      </trkpt>
      <trkpt lat="45.96226" lon="5.55735">
        <ele>779.8</ele>
        <time>2020-09-07T11:08:24.000Z</time>
      </trkpt>
      <trkpt lat="45.96228" lon="5.55753">
        <ele>775</ele>
        <time>2020-09-07T11:08:33.295Z</time>
      </trkpt>
      <trkpt lat="45.96221" lon="5.55761">
        <ele>759.7</ele>
        <time>2020-09-07T11:08:44.000Z</time>
      </trkpt>
      <trkpt lat="45.96224" lon="5.55769">
        <ele>760.19</ele>
        <time>2020-09-07T11:08:54.000Z</time>
      </trkpt>
      <trkpt lat="45.96227" lon="5.55775">
        <ele>759.93</ele>
        <time>2020-09-07T11:09:04.000Z</time>
      </trkpt>
      <trkpt lat="45.96227" lon="5.55772">
        <ele>761.91</ele>
        <time>2020-09-07T11:09:22.000Z</time>
      </trkpt>
      <trkpt lat="45.96228" lon="5.5577">
        <ele>765.36</ele>
        <time>2020-09-07T11:09:34.000Z</time>
      </trkpt>
      <trkpt lat="45.9623" lon="5.55769">
        <ele>769.65</ele>
        <time>2020-09-07T11:10:09.000Z</time>
      </trkpt>
      <trkpt lat="45.96234" lon="5.55766">
        <ele>777.22</ele>
        <time>2020-09-07T11:10:20.000Z</time>
      </trkpt>
      <trkpt lat="45.96236" lon="5.55768">
        <ele>779.67</ele>
        <time>2020-09-07T11:10:30.000Z</time>
      </trkpt>
      <trkpt lat="45.96238" lon="5.55775">
        <ele>777.76</ele>
        <time>2020-09-07T11:10:39.292Z</time>
      </trkpt>
      <trkpt lat="45.96246" lon="5.55778">
        <ele>784.9</ele>
        <time>2020-09-07T11:10:49.000Z</time>
      </trkpt>
      <trkpt lat="45.96257" lon="5.55784">
        <ele>789.72</ele>
        <time>2020-09-07T11:10:59.000Z</time>
      </trkpt>
      <trkpt lat="45.96268" lon="5.55791">
        <ele>791.29</ele>
        <time>2020-09-07T11:11:09.000Z</time>
      </trkpt>
      <trkpt lat="45.96276" lon="5.55802">
        <ele>787.13</ele>
        <time>2020-09-07T11:11:19.000Z</time>
      </trkpt>
      <trkpt lat="45.96281" lon="5.55816">
        <ele>780.49</ele>
        <time>2020-09-07T11:11:29.000Z</time>
      </trkpt>
      <trkpt lat="45.96287" lon="5.55828">
        <ele>777.43</ele>
        <time>2020-09-07T11:11:39.000Z</time>
      </trkpt>
      <trkpt lat="45.96294" lon="5.55836">
        <ele>776.98</ele>
        <time>2020-09-07T11:11:48.198Z</time>
      </trkpt>
      <trkpt lat="45.96299" lon="5.55842">
        <ele>777.95</ele>
        <time>2020-09-07T11:11:57.638Z</time>
      </trkpt>
      <trkpt lat="45.96305" lon="5.55844">
        <ele>780.45</ele>
        <time>2020-09-07T11:12:06.999Z</time>
      </trkpt>
      <trkpt lat="45.9631" lon="5.55855">
        <ele>779.94</ele>
        <time>2020-09-07T11:12:16.093Z</time>
      </trkpt>
      <trkpt lat="45.96313" lon="5.55866">
        <ele>778.28</ele>
        <time>2020-09-07T11:12:25.334Z</time>
      </trkpt>
      <trkpt lat="45.96318" lon="5.55873">
        <ele>778.84</ele>
        <time>2020-09-07T11:12:34.712Z</time>
      </trkpt>
      <trkpt lat="45.96322" lon="5.55872">
        <ele>783.1</ele>
        <time>2020-09-07T11:12:43.999Z</time>
      </trkpt>
      <trkpt lat="45.96329" lon="5.55879">
        <ele>785.11</ele>
        <time>2020-09-07T11:12:53.999Z</time>
      </trkpt>
      <trkpt lat="45.96339" lon="5.55888">
        <ele>788.26</ele>
        <time>2020-09-07T11:13:03.999Z</time>
      </trkpt>
      <trkpt lat="45.96348" lon="5.559">
        <ele>788.78</ele>
        <time>2020-09-07T11:13:13.369Z</time>
      </trkpt>
      <trkpt lat="45.96355" lon="5.55911">
        <ele>786.88</ele>
        <time>2020-09-07T11:13:23.999Z</time>
      </trkpt>
      <trkpt lat="45.96364" lon="5.55922">
        <ele>785.62</ele>
        <time>2020-09-07T11:13:33.436Z</time>
      </trkpt>
      <trkpt lat="45.96373" lon="5.55922">
        <ele>787.72</ele>
        <time>2020-09-07T11:13:42.594Z</time>
      </trkpt>
      <trkpt lat="45.96379" lon="5.55922">
        <ele>788.75</ele>
        <time>2020-09-07T11:13:51.999Z</time>
      </trkpt>
      <trkpt lat="45.96387" lon="5.5594">
        <ele>785.29</ele>
        <time>2020-09-07T11:14:01.693Z</time>
      </trkpt>
      <trkpt lat="45.96391" lon="5.55956">
        <ele>782.64</ele>
        <time>2020-09-07T11:14:10.999Z</time>
      </trkpt>
      <trkpt lat="45.96397" lon="5.55962">
        <ele>783.75</ele>
        <time>2020-09-07T11:14:21.999Z</time>
      </trkpt>
      <trkpt lat="45.96403" lon="5.55968">
        <ele>785.52</ele>
        <time>2020-09-07T11:14:31.038Z</time>
      </trkpt>
      <trkpt lat="45.96409" lon="5.55977">
        <ele>787.02</ele>
        <time>2020-09-07T11:14:40.999Z</time>
      </trkpt>
      <trkpt lat="45.96416" lon="5.55986">
        <ele>788.69</ele>
        <time>2020-09-07T11:14:50.055Z</time>
      </trkpt>
      <trkpt lat="45.96423" lon="5.5599">
        <ele>790.81</ele>
        <time>2020-09-07T11:14:59.096Z</time>
      </trkpt>
      <trkpt lat="45.9643" lon="5.55994">
        <ele>791.67</ele>
        <time>2020-09-07T11:15:08.556Z</time>
      </trkpt>
      <trkpt lat="45.9644" lon="5.56">
        <ele>791.3</ele>
        <time>2020-09-07T11:15:17.854Z</time>
      </trkpt>
      <trkpt lat="45.96454" lon="5.56006">
        <ele>788.95</ele>
        <time>2020-09-07T11:15:27.294Z</time>
      </trkpt>
      <trkpt lat="45.96465" lon="5.56007">
        <ele>786.32</ele>
        <time>2020-09-07T11:15:36.999Z</time>
      </trkpt>
      <trkpt lat="45.96474" lon="5.56008">
        <ele>783.76</ele>
        <time>2020-09-07T11:15:46.999Z</time>
      </trkpt>
      <trkpt lat="45.9648" lon="5.56006">
        <ele>782.37</ele>
        <time>2020-09-07T11:15:56.111Z</time>
      </trkpt>
      <trkpt lat="45.96485" lon="5.56007">
        <ele>781.23</ele>
        <time>2020-09-07T11:16:05.251Z</time>
      </trkpt>
      <trkpt lat="45.96493" lon="5.56006">
        <ele>780.08</ele>
        <time>2020-09-07T11:16:14.888Z</time>
      </trkpt>
      <trkpt lat="45.96499" lon="5.56005">
        <ele>779.57</ele>
        <time>2020-09-07T11:16:24.288Z</time>
      </trkpt>
      <trkpt lat="45.96503" lon="5.56005">
        <ele>779.46</ele>
        <time>2020-09-07T11:16:33.477Z</time>
      </trkpt>
      <trkpt lat="45.96513" lon="5.56008">
        <ele>778.95</ele>
        <time>2020-09-07T11:16:42.999Z</time>
      </trkpt>
      <trkpt lat="45.9652" lon="5.56014">
        <ele>778.59</ele>
        <time>2020-09-07T11:16:53.999Z</time>
      </trkpt>
      <trkpt lat="45.96523" lon="5.56011">
        <ele>778.69</ele>
        <time>2020-09-07T11:17:03.999Z</time>
      </trkpt>
      <trkpt lat="45.96526" lon="5.56006">
        <ele>778.83</ele>
        <time>2020-09-07T11:17:14.999Z</time>
      </trkpt>
      <trkpt lat="45.9653" lon="5.56004">
        <ele>778.85</ele>
        <time>2020-09-07T11:17:24.999Z</time>
      </trkpt>
      <trkpt lat="45.9653" lon="5.55995">
        <ele>779.27</ele>
        <time>2020-09-07T11:17:35.999Z</time>
      </trkpt>
      <trkpt lat="45.96532" lon="5.55991">
        <ele>779.45</ele>
        <time>2020-09-07T11:17:46.999Z</time>
      </trkpt>
      <trkpt lat="45.96533" lon="5.55986">
        <ele>779.89</ele>
        <time>2020-09-07T11:17:56.388Z</time>
      </trkpt>
      <trkpt lat="45.96534" lon="5.55983">
        <ele>780.14</ele>
        <time>2020-09-07T11:18:12.999Z</time>
      </trkpt>
      <trkpt lat="45.96538" lon="5.5598">
        <ele>780.3</ele>
        <time>2020-09-07T11:18:22.999Z</time>
      </trkpt>
      <trkpt lat="45.96541" lon="5.5597">
        <ele>781.37</ele>
        <time>2020-09-07T11:18:32.999Z</time>
      </trkpt>
      <trkpt lat="45.96547" lon="5.55963">
        <ele>782.01</ele>
        <time>2020-09-07T11:18:42.053Z</time>
      </trkpt>
      <trkpt lat="45.96554" lon="5.55964">
        <ele>781.54</ele>
        <time>2020-09-07T11:18:51.270Z</time>
      </trkpt>
      <trkpt lat="45.96559" lon="5.55965">
        <ele>781.22</ele>
        <time>2020-09-07T11:19:00.309Z</time>
      </trkpt>
      <trkpt lat="45.96566" lon="5.55969">
        <ele>780.64</ele>
        <time>2020-09-07T11:19:10.999Z</time>
      </trkpt>
      <trkpt lat="45.96571" lon="5.5597">
        <ele>780.48</ele>
        <time>2020-09-07T11:19:20.999Z</time>
      </trkpt>
      <trkpt lat="45.96576" lon="5.55975">
        <ele>780.18</ele>
        <time>2020-09-07T11:19:30.999Z</time>
      </trkpt>
      <trkpt lat="45.96585" lon="5.55983">
        <ele>780.06</ele>
        <time>2020-09-07T11:19:40.297Z</time>
      </trkpt>
      <trkpt lat="45.96592" lon="5.55987">
        <ele>780.63</ele>
        <time>2020-09-07T11:19:49.999Z</time>
      </trkpt>
      <trkpt lat="45.96599" lon="5.55991">
        <ele>781.48</ele>
        <time>2020-09-07T11:19:59.999Z</time>
      </trkpt>
      <trkpt lat="45.9661" lon="5.5599">
        <ele>783.04</ele>
        <time>2020-09-07T11:20:09.999Z</time>
      </trkpt>
      <trkpt lat="45.96616" lon="5.55981">
        <ele>784.05</ele>
        <time>2020-09-07T11:20:19.999Z</time>
      </trkpt>
      <trkpt lat="45.96626" lon="5.55969">
        <ele>785.74</ele>
        <time>2020-09-07T11:20:29.551Z</time>
      </trkpt>
      <trkpt lat="45.96633" lon="5.55961">
        <ele>786.84</ele>
        <time>2020-09-07T11:20:39.999Z</time>
      </trkpt>
      <trkpt lat="45.96644" lon="5.55956">
        <ele>788.26</ele>
        <time>2020-09-07T11:20:49.251Z</time>
      </trkpt>
      <trkpt lat="45.96654" lon="5.55946">
        <ele>789.21</ele>
        <time>2020-09-07T11:20:58.999Z</time>
      </trkpt>
      <trkpt lat="45.96662" lon="5.55936">
        <ele>789.71</ele>
        <time>2020-09-07T11:21:08.409Z</time>
      </trkpt>
      <trkpt lat="45.96674" lon="5.5594">
        <ele>790.27</ele>
        <time>2020-09-07T11:21:18.999Z</time>
      </trkpt>
      <trkpt lat="45.96688" lon="5.55942">
        <ele>790.63</ele>
        <time>2020-09-07T11:21:28.189Z</time>
      </trkpt>
      <trkpt lat="45.96699" lon="5.55952">
        <ele>790.81</ele>
        <time>2020-09-07T11:21:37.538Z</time>
      </trkpt>
      <trkpt lat="45.96706" lon="5.55956">
        <ele>790.8</ele>
        <time>2020-09-07T11:21:46.896Z</time>
      </trkpt>
      <trkpt lat="45.96712" lon="5.55959">
        <ele>790.73</ele>
        <time>2020-09-07T11:21:56.999Z</time>
      </trkpt>
      <trkpt lat="45.96723" lon="5.55969">
        <ele>790.51</ele>
        <time>2020-09-07T11:22:06.294Z</time>
      </trkpt>
      <trkpt lat="45.96731" lon="5.55979">
        <ele>790.27</ele>
        <time>2020-09-07T11:22:16.999Z</time>
      </trkpt>
      <trkpt lat="45.9674" lon="5.55989">
        <ele>790.05</ele>
        <time>2020-09-07T11:22:26.999Z</time>
      </trkpt>
      <trkpt lat="45.96749" lon="5.55998">
        <ele>789.98</ele>
        <time>2020-09-07T11:22:36.211Z</time>
      </trkpt>
      <trkpt lat="45.96757" lon="5.56007">
        <ele>790.13</ele>
        <time>2020-09-07T11:22:45.728Z</time>
      </trkpt>
      <trkpt lat="45.96764" lon="5.56017">
        <ele>790.43</ele>
        <time>2020-09-07T11:22:55.999Z</time>
      </trkpt>
      <trkpt lat="45.96771" lon="5.56027">
        <ele>790.77</ele>
        <time>2020-09-07T11:23:05.999Z</time>
      </trkpt>
      <trkpt lat="45.96782" lon="5.56034">
        <ele>790.89</ele>
        <time>2020-09-07T11:23:15.238Z</time>
      </trkpt>
      <trkpt lat="45.96788" lon="5.56041">
        <ele>790.96</ele>
        <time>2020-09-07T11:23:24.737Z</time>
      </trkpt>
      <trkpt lat="45.96796" lon="5.56051">
        <ele>790.92</ele>
        <time>2020-09-07T11:23:34.075Z</time>
      </trkpt>
      <trkpt lat="45.96802" lon="5.56062">
        <ele>790.82</ele>
        <time>2020-09-07T11:23:43.375Z</time>
      </trkpt>
      <trkpt lat="45.968" lon="5.56077">
        <ele>790.92</ele>
        <time>2020-09-07T11:23:54.000Z</time>
      </trkpt>
      <trkpt lat="45.96796" lon="5.56092">
        <ele>791.05</ele>
        <time>2020-09-07T11:24:03.212Z</time>
      </trkpt>
      <trkpt lat="45.96793" lon="5.56103">
        <ele>791.05</ele>
        <time>2020-09-07T11:24:14.000Z</time>
      </trkpt>
      <trkpt lat="45.96786" lon="5.56118">
        <ele>791.12</ele>
        <time>2020-09-07T11:24:23.292Z</time>
      </trkpt>
      <trkpt lat="45.96781" lon="5.56127">
        <ele>791.16</ele>
        <time>2020-09-07T11:24:34.000Z</time>
      </trkpt>
      <trkpt lat="45.96775" lon="5.56133">
        <ele>791.37</ele>
        <time>2020-09-07T11:24:45.000Z</time>
      </trkpt>
      <trkpt lat="45.96766" lon="5.56139">
        <ele>791.69</ele>
        <time>2020-09-07T11:24:55.000Z</time>
      </trkpt>
      <trkpt lat="45.9676" lon="5.56145">
        <ele>791.83</ele>
        <time>2020-09-07T11:25:05.000Z</time>
      </trkpt>
      <trkpt lat="45.96756" lon="5.56157">
        <ele>791.78</ele>
        <time>2020-09-07T11:25:14.016Z</time>
      </trkpt>
      <trkpt lat="45.96751" lon="5.56172">
        <ele>791.96</ele>
        <time>2020-09-07T11:25:23.350Z</time>
      </trkpt>
      <trkpt lat="45.9675" lon="5.56188">
        <ele>792.23</ele>
        <time>2020-09-07T11:25:32.530Z</time>
      </trkpt>
      <trkpt lat="45.96745" lon="5.56204">
        <ele>792.98</ele>
        <time>2020-09-07T11:25:41.612Z</time>
      </trkpt>
      <trkpt lat="45.96737" lon="5.56213">
        <ele>793.86</ele>
        <time>2020-09-07T11:25:50.968Z</time>
      </trkpt>
      <trkpt lat="45.96728" lon="5.56217">
        <ele>794.86</ele>
        <time>2020-09-07T11:26:00.000Z</time>
      </trkpt>
      <trkpt lat="45.96719" lon="5.56224">
        <ele>796.07</ele>
        <time>2020-09-07T11:26:09.475Z</time>
      </trkpt>
      <trkpt lat="45.9671" lon="5.56242">
        <ele>797.27</ele>
        <time>2020-09-07T11:26:18.695Z</time>
      </trkpt>
      <trkpt lat="45.96708" lon="5.56257">
        <ele>797.27</ele>
        <time>2020-09-07T11:26:27.894Z</time>
      </trkpt>
      <trkpt lat="45.96709" lon="5.56265">
        <ele>797</ele>
        <time>2020-09-07T11:26:37.293Z</time>
      </trkpt>
      <trkpt lat="45.96711" lon="5.56278">
        <ele>796.56</ele>
        <time>2020-09-07T11:26:46.611Z</time>
      </trkpt>
      <trkpt lat="45.96716" lon="5.56299">
        <ele>795.67</ele>
        <time>2020-09-07T11:26:56.028Z</time>
      </trkpt>
      <trkpt lat="45.9672" lon="5.56315">
        <ele>795</ele>
        <time>2020-09-07T11:27:05.051Z</time>
      </trkpt>
      <trkpt lat="45.96723" lon="5.56326">
        <ele>794.48</ele>
        <time>2020-09-07T11:27:14.148Z</time>
      </trkpt>
      <trkpt lat="45.96728" lon="5.56344">
        <ele>793.53</ele>
        <time>2020-09-07T11:27:23.309Z</time>
      </trkpt>
      <trkpt lat="45.96733" lon="5.56357">
        <ele>792.83</ele>
        <time>2020-09-07T11:27:32.318Z</time>
      </trkpt>
      <trkpt lat="45.96738" lon="5.56366">
        <ele>792.56</ele>
        <time>2020-09-07T11:27:41.497Z</time>
      </trkpt>
      <trkpt lat="45.96743" lon="5.56378">
        <ele>792.1</ele>
        <time>2020-09-07T11:27:52.000Z</time>
      </trkpt>
      <trkpt lat="45.96744" lon="5.56397">
        <ele>790.38</ele>
        <time>2020-09-07T11:28:03.000Z</time>
      </trkpt>
      <trkpt lat="45.96747" lon="5.56403">
        <ele>790.43</ele>
        <time>2020-09-07T11:28:13.000Z</time>
      </trkpt>
      <trkpt lat="45.96747" lon="5.56421">
        <ele>789</ele>
        <time>2020-09-07T11:28:24.000Z</time>
      </trkpt>
      <trkpt lat="45.96745" lon="5.5642">
        <ele>788.59</ele>
        <time>2020-09-07T11:28:39.000Z</time>
      </trkpt>
      <trkpt lat="45.96743" lon="5.56421">
        <ele>788.05</ele>
        <time>2020-09-07T11:29:09.000Z</time>
      </trkpt>
      <trkpt lat="45.96744" lon="5.56419">
        <ele>788.4</ele>
        <time>2020-09-07T11:29:26.000Z</time>
      </trkpt>
      <trkpt lat="45.96745" lon="5.56416">
        <ele>788.94</ele>
        <time>2020-09-07T11:29:36.000Z</time>
      </trkpt>
      <trkpt lat="45.96746" lon="5.56413">
        <ele>789.29</ele>
        <time>2020-09-07T11:29:56.000Z</time>
      </trkpt>
      <trkpt lat="45.96746" lon="5.56408">
        <ele>789.88</ele>
        <time>2020-09-07T11:30:06.000Z</time>
      </trkpt>
      <trkpt lat="45.96746" lon="5.56405">
        <ele>790.09</ele>
        <time>2020-09-07T11:30:24.000Z</time>
      </trkpt>
      <trkpt lat="45.96747" lon="5.56408">
        <ele>789.99</ele>
        <time>2020-09-07T11:30:49.000Z</time>
      </trkpt>
      <trkpt lat="45.96746" lon="5.5641">
        <ele>789.64</ele>
        <time>2020-09-07T11:31:01.000Z</time>
      </trkpt>
      <trkpt lat="45.96746" lon="5.56415">
        <ele>789.12</ele>
        <time>2020-09-07T11:31:11.000Z</time>
      </trkpt>
      <trkpt lat="45.96742" lon="5.56426">
        <ele>787.5</ele>
        <time>2020-09-07T11:31:20.596Z</time>
      </trkpt>
      <trkpt lat="45.96742" lon="5.56437">
        <ele>786.68</ele>
        <time>2020-09-07T11:31:31.000Z</time>
      </trkpt>
      <trkpt lat="45.96741" lon="5.56451">
        <ele>785.45</ele>
        <time>2020-09-07T11:31:40.279Z</time>
      </trkpt>
      <trkpt lat="45.96741" lon="5.56477">
        <ele>783.52</ele>
        <time>2020-09-07T11:31:51.000Z</time>
      </trkpt>
      <trkpt lat="45.96742" lon="5.56502">
        <ele>781.09</ele>
        <time>2020-09-07T11:32:00.349Z</time>
      </trkpt>
      <trkpt lat="45.96744" lon="5.56518">
        <ele>779.63</ele>
        <time>2020-09-07T11:32:09.758Z</time>
      </trkpt>
      <trkpt lat="45.96749" lon="5.56537">
        <ele>778.43</ele>
        <time>2020-09-07T11:32:19.296Z</time>
      </trkpt>
      <trkpt lat="45.96756" lon="5.5655">
        <ele>778.58</ele>
        <time>2020-09-07T11:32:28.516Z</time>
      </trkpt>
      <trkpt lat="45.9676" lon="5.56562">
        <ele>777.85</ele>
        <time>2020-09-07T11:32:37.781Z</time>
      </trkpt>
      <trkpt lat="45.96761" lon="5.56568">
        <ele>776.99</ele>
        <time>2020-09-07T11:32:47.000Z</time>
      </trkpt>
      <trkpt lat="45.96761" lon="5.5658">
        <ele>774.8</ele>
        <time>2020-09-07T11:32:56.316Z</time>
      </trkpt>
      <trkpt lat="45.96763" lon="5.56591">
        <ele>773.44</ele>
        <time>2020-09-07T11:33:05.614Z</time>
      </trkpt>
      <trkpt lat="45.96768" lon="5.5661">
        <ele>771.67</ele>
        <time>2020-09-07T11:33:15.000Z</time>
      </trkpt>
      <trkpt lat="45.96775" lon="5.56629">
        <ele>770.77</ele>
        <time>2020-09-07T11:33:24.195Z</time>
      </trkpt>
      <trkpt lat="45.96782" lon="5.5664">
        <ele>772.29</ele>
        <time>2020-09-07T11:33:35.000Z</time>
      </trkpt>
      <trkpt lat="45.96787" lon="5.56648">
        <ele>773.62</ele>
        <time>2020-09-07T11:33:45.000Z</time>
      </trkpt>
      <trkpt lat="45.96791" lon="5.5666">
        <ele>774.39</ele>
        <time>2020-09-07T11:33:54.452Z</time>
      </trkpt>
      <trkpt lat="45.96798" lon="5.56675">
        <ele>777.06</ele>
        <time>2020-09-07T11:34:03.709Z</time>
      </trkpt>
      <trkpt lat="45.96801" lon="5.56689">
        <ele>777.33</ele>
        <time>2020-09-07T11:34:13.138Z</time>
      </trkpt>
      <trkpt lat="45.96801" lon="5.56698">
        <ele>776.82</ele>
        <time>2020-09-07T11:34:22.458Z</time>
      </trkpt>
      <trkpt lat="45.96801" lon="5.56704">
        <ele>776.42</ele>
        <time>2020-09-07T11:34:32.000Z</time>
      </trkpt>
      <trkpt lat="45.96801" lon="5.56721">
        <ele>775.3</ele>
        <time>2020-09-07T11:34:42.000Z</time>
      </trkpt>
      <trkpt lat="45.96802" lon="5.56737">
        <ele>774.53</ele>
        <time>2020-09-07T11:34:53.000Z</time>
      </trkpt>
      <trkpt lat="45.96801" lon="5.56751">
        <ele>773.38</ele>
        <time>2020-09-07T11:35:02.593Z</time>
      </trkpt>
      <trkpt lat="45.96799" lon="5.56768">
        <ele>771.99</ele>
        <time>2020-09-07T11:35:11.670Z</time>
      </trkpt>
      <trkpt lat="45.96798" lon="5.56788">
        <ele>770.96</ele>
        <time>2020-09-07T11:35:20.710Z</time>
      </trkpt>
      <trkpt lat="45.96796" lon="5.56801">
        <ele>769.76</ele>
        <time>2020-09-07T11:35:29.858Z</time>
      </trkpt>
      <trkpt lat="45.96791" lon="5.56813">
        <ele>768.61</ele>
        <time>2020-09-07T11:35:39.999Z</time>
      </trkpt>
      <trkpt lat="45.96786" lon="5.56833">
        <ele>768.79</ele>
        <time>2020-09-07T11:35:49.999Z</time>
      </trkpt>
      <trkpt lat="45.96785" lon="5.56847">
        <ele>769.95</ele>
        <time>2020-09-07T11:35:59.999Z</time>
      </trkpt>
      <trkpt lat="45.96782" lon="5.56862">
        <ele>771.86</ele>
        <time>2020-09-07T11:36:09.999Z</time>
      </trkpt>
      <trkpt lat="45.96781" lon="5.56875">
        <ele>773.79</ele>
        <time>2020-09-07T11:36:19.999Z</time>
      </trkpt>
      <trkpt lat="45.96781" lon="5.56887">
        <ele>775.63</ele>
        <time>2020-09-07T11:36:29.453Z</time>
      </trkpt>
      <trkpt lat="45.96779" lon="5.56905">
        <ele>777.68</ele>
        <time>2020-09-07T11:36:38.730Z</time>
      </trkpt>
      <trkpt lat="45.96776" lon="5.56922">
        <ele>778.24</ele>
        <time>2020-09-07T11:36:47.999Z</time>
      </trkpt>
      <trkpt lat="45.96771" lon="5.56939">
        <ele>777.54</ele>
        <time>2020-09-07T11:36:57.999Z</time>
      </trkpt>
      <trkpt lat="45.96771" lon="5.56955">
        <ele>776.98</ele>
        <time>2020-09-07T11:37:07.999Z</time>
      </trkpt>
      <trkpt lat="45.96773" lon="5.56966">
        <ele>776.74</ele>
        <time>2020-09-07T11:37:17.999Z</time>
      </trkpt>
      <trkpt lat="45.96776" lon="5.56976">
        <ele>776.64</ele>
        <time>2020-09-07T11:37:27.095Z</time>
      </trkpt>
      <trkpt lat="45.96778" lon="5.56989">
        <ele>776.03</ele>
        <time>2020-09-07T11:37:36.254Z</time>
      </trkpt>
      <trkpt lat="45.96779" lon="5.57006">
        <ele>774.76</ele>
        <time>2020-09-07T11:37:45.333Z</time>
      </trkpt>
      <trkpt lat="45.96779" lon="5.57017">
        <ele>773.6</ele>
        <time>2020-09-07T11:37:54.595Z</time>
      </trkpt>
      <trkpt lat="45.9678" lon="5.57031">
        <ele>771.83</ele>
        <time>2020-09-07T11:38:04.999Z</time>
      </trkpt>
      <trkpt lat="45.9678" lon="5.5704">
        <ele>770.57</ele>
        <time>2020-09-07T11:38:14.310Z</time>
      </trkpt>
      <trkpt lat="45.96782" lon="5.57047">
        <ele>769.76</ele>
        <time>2020-09-07T11:38:24.999Z</time>
      </trkpt>
      <trkpt lat="45.96781" lon="5.57052">
        <ele>768.88</ele>
        <time>2020-09-07T11:38:34.999Z</time>
      </trkpt>
      <trkpt lat="45.96777" lon="5.5706">
        <ele>767.24</ele>
        <time>2020-09-07T11:38:44.135Z</time>
      </trkpt>
      <trkpt lat="45.96773" lon="5.57064">
        <ele>766.14</ele>
        <time>2020-09-07T11:38:53.999Z</time>
      </trkpt>
      <trkpt lat="45.96772" lon="5.57076">
        <ele>764.68</ele>
        <time>2020-09-07T11:39:03.593Z</time>
      </trkpt>
      <trkpt lat="45.96775" lon="5.57096">
        <ele>763.14</ele>
        <time>2020-09-07T11:39:13.999Z</time>
      </trkpt>
      <trkpt lat="45.96777" lon="5.57109">
        <ele>762.44</ele>
        <time>2020-09-07T11:39:23.613Z</time>
      </trkpt>
      <trkpt lat="45.96779" lon="5.57116">
        <ele>762.24</ele>
        <time>2020-09-07T11:39:32.710Z</time>
      </trkpt>
      <trkpt lat="45.9678" lon="5.57122">
        <ele>762</ele>
        <time>2020-09-07T11:39:41.999Z</time>
      </trkpt>
      <trkpt lat="45.96782" lon="5.57131">
        <ele>761.78</ele>
        <time>2020-09-07T11:39:51.117Z</time>
      </trkpt>
      <trkpt lat="45.96784" lon="5.5714">
        <ele>761.55</ele>
        <time>2020-09-07T11:40:00.217Z</time>
      </trkpt>
      <trkpt lat="45.96786" lon="5.57147">
        <ele>761.44</ele>
        <time>2020-09-07T11:40:09.516Z</time>
      </trkpt>
      <trkpt lat="45.96791" lon="5.57163">
        <ele>761.31</ele>
        <time>2020-09-07T11:40:19.999Z</time>
      </trkpt>
      <trkpt lat="45.96799" lon="5.57183">
        <ele>761.44</ele>
        <time>2020-09-07T11:40:29.632Z</time>
      </trkpt>
      <trkpt lat="45.96804" lon="5.57194">
        <ele>762</ele>
        <time>2020-09-07T11:40:39.999Z</time>
      </trkpt>
      <trkpt lat="45.96807" lon="5.57211">
        <ele>762</ele>
        <time>2020-09-07T11:40:49.999Z</time>
      </trkpt>
      <trkpt lat="45.96809" lon="5.57233">
        <ele>761.6</ele>
        <time>2020-09-07T11:40:59.352Z</time>
      </trkpt>
      <trkpt lat="45.96814" lon="5.57261">
        <ele>761.5</ele>
        <time>2020-09-07T11:41:08.550Z</time>
      </trkpt>
      <trkpt lat="45.96818" lon="5.57289">
        <ele>760.65</ele>
        <time>2020-09-07T11:41:17.716Z</time>
      </trkpt>
      <trkpt lat="45.96823" lon="5.57305">
        <ele>760.51</ele>
        <time>2020-09-07T11:41:26.999Z</time>
      </trkpt>
      <trkpt lat="45.96826" lon="5.57327">
        <ele>758.57</ele>
        <time>2020-09-07T11:41:37.999Z</time>
      </trkpt>
      <trkpt lat="45.96832" lon="5.57346">
        <ele>757.08</ele>
        <time>2020-09-07T11:41:47.178Z</time>
      </trkpt>
      <trkpt lat="45.96838" lon="5.57358">
        <ele>755.79</ele>
        <time>2020-09-07T11:41:56.574Z</time>
      </trkpt>
      <trkpt lat="45.96846" lon="5.57368">
        <ele>755.2</ele>
        <time>2020-09-07T11:42:06.034Z</time>
      </trkpt>
      <trkpt lat="45.96855" lon="5.57378">
        <ele>753.92</ele>
        <time>2020-09-07T11:42:15.074Z</time>
      </trkpt>
      <trkpt lat="45.96863" lon="5.57384">
        <ele>753.84</ele>
        <time>2020-09-07T11:42:25.999Z</time>
      </trkpt>
      <trkpt lat="45.96873" lon="5.57389">
        <ele>754.18</ele>
        <time>2020-09-07T11:42:35.011Z</time>
      </trkpt>
      <trkpt lat="45.96883" lon="5.57394">
        <ele>754.18</ele>
        <time>2020-09-07T11:42:44.999Z</time>
      </trkpt>
      <trkpt lat="45.96893" lon="5.574">
        <ele>753.66</ele>
        <time>2020-09-07T11:42:54.118Z</time>
      </trkpt>
      <trkpt lat="45.96902" lon="5.57407">
        <ele>752.85</ele>
        <time>2020-09-07T11:43:03.316Z</time>
      </trkpt>
      <trkpt lat="45.96908" lon="5.57415">
        <ele>751.65</ele>
        <time>2020-09-07T11:43:12.416Z</time>
      </trkpt>
      <trkpt lat="45.96912" lon="5.57425">
        <ele>749.79</ele>
        <time>2020-09-07T11:43:21.474Z</time>
      </trkpt>
      <trkpt lat="45.96907" lon="5.57443">
        <ele>745.04</ele>
        <time>2020-09-07T11:43:30.714Z</time>
      </trkpt>
      <trkpt lat="45.96899" lon="5.57448">
        <ele>742.62</ele>
        <time>2020-09-07T11:43:39.999Z</time>
      </trkpt>
      <trkpt lat="45.9689" lon="5.57438">
        <ele>743.02</ele>
        <time>2020-09-07T11:43:49.474Z</time>
      </trkpt>
      <trkpt lat="45.96882" lon="5.57432">
        <ele>743.18</ele>
        <time>2020-09-07T11:43:59.017Z</time>
      </trkpt>
      <trkpt lat="45.96871" lon="5.57438">
        <ele>740.7</ele>
        <time>2020-09-07T11:44:08.052Z</time>
      </trkpt>
      <trkpt lat="45.96861" lon="5.57446">
        <ele>738.21</ele>
        <time>2020-09-07T11:44:17.091Z</time>
      </trkpt>
      <trkpt lat="45.96862" lon="5.57452">
        <ele>737.46</ele>
        <time>2020-09-07T11:44:26.611Z</time>
      </trkpt>
      <trkpt lat="45.96855" lon="5.57461">
        <ele>735.68</ele>
        <time>2020-09-07T11:44:35.639Z</time>
      </trkpt>
      <trkpt lat="45.96849" lon="5.57473">
        <ele>733.94</ele>
        <time>2020-09-07T11:44:44.736Z</time>
      </trkpt>
      <trkpt lat="45.96844" lon="5.57487">
        <ele>732.5</ele>
        <time>2020-09-07T11:44:53.999Z</time>
      </trkpt>
      <trkpt lat="45.96844" lon="5.57496">
        <ele>731.81</ele>
        <time>2020-09-07T11:45:03.999Z</time>
      </trkpt>
      <trkpt lat="45.9684" lon="5.57485">
        <ele>732.37</ele>
        <time>2020-09-07T11:45:13.999Z</time>
      </trkpt>
      <trkpt lat="45.96841" lon="5.57482">
        <ele>732.63</ele>
        <time>2020-09-07T11:45:23.999Z</time>
      </trkpt>
      <trkpt lat="45.96841" lon="5.57486">
        <ele>732.36</ele>
        <time>2020-09-07T11:45:33.653Z</time>
      </trkpt>
      <trkpt lat="45.96847" lon="5.57494">
        <ele>732.13</ele>
        <time>2020-09-07T11:45:42.999Z</time>
      </trkpt>
      <trkpt lat="45.96857" lon="5.57505">
        <ele>731.83</ele>
        <time>2020-09-07T11:45:52.999Z</time>
      </trkpt>
      <trkpt lat="45.96862" lon="5.57521">
        <ele>731.47</ele>
        <time>2020-09-07T11:46:02.369Z</time>
      </trkpt>
      <trkpt lat="45.96845" lon="5.5753">
        <ele>730.48</ele>
        <time>2020-09-07T11:46:12.999Z</time>
      </trkpt>
      <trkpt lat="45.9683" lon="5.57532">
        <ele>729.75</ele>
        <time>2020-09-07T11:46:22.328Z</time>
      </trkpt>
      <trkpt lat="45.96819" lon="5.57538">
        <ele>729.34</ele>
        <time>2020-09-07T11:46:31.419Z</time>
      </trkpt>
      <trkpt lat="45.9681" lon="5.57548">
        <ele>729.14</ele>
        <time>2020-09-07T11:46:40.696Z</time>
      </trkpt>
      <trkpt lat="45.96804" lon="5.5756">
        <ele>729.11</ele>
        <time>2020-09-07T11:46:50.000Z</time>
      </trkpt>
      <trkpt lat="45.96799" lon="5.57574">
        <ele>729.24</ele>
        <time>2020-09-07T11:46:59.256Z</time>
      </trkpt>
      <trkpt lat="45.96798" lon="5.57586">
        <ele>729.44</ele>
        <time>2020-09-07T11:47:09.000Z</time>
      </trkpt>
      <trkpt lat="45.968" lon="5.57585">
        <ele>729.4</ele>
        <time>2020-09-07T11:47:19.000Z</time>
      </trkpt>
    </trkseg>
  </trk>
</gpx>